<?xml version="1.0" encoding="UTF-8" standalone="no" ?>
<gpx xmlns="http://www.topografix.com/GPX/1/1" xmlns:xsi="http://www.w3.org/2001/XMLSchema-instance" xsi:schemaLocation="http://www.topografix.com/GPX/1/1 http://www.topografix.com/GPX/1/1/gpx.xsd" version="1.1" creator="VisuGPX - https://www.visugpx.com">
  <metadata>
    <name>Session avec Quentin 4ans1/2</name>
    <desc><![CDATA[Belle chute de Quentin dans les orties!!!]]></desc>
  </metadata>
  <trk>
    <name><![CDATA[2015-05-17 18:48:52]]></name>
    <trkseg>
      <trkpt lat="50.12465" lon="3.67835">
        <ele>129.92</ele>
        <time>2015-05-17T15:02:04Z</time>
      </trkpt>
      <trkpt lat="50.12465" lon="3.67835">
        <ele>129.92</ele>
        <time>2015-05-17T15:02:05Z</time>
      </trkpt>
      <trkpt lat="50.12466" lon="3.67836">
        <ele>129.43</ele>
        <time>2015-05-17T15:02:10Z</time>
      </trkpt>
      <trkpt lat="50.12461" lon="3.67823">
        <ele>129.43</ele>
        <time>2015-05-17T15:02:21Z</time>
      </trkpt>
      <trkpt lat="50.12457" lon="3.6782">
        <ele>129.43</ele>
        <time>2015-05-17T15:02:33Z</time>
      </trkpt>
      <trkpt lat="50.12455" lon="3.67816">
        <ele>129.43</ele>
        <time>2015-05-17T15:02:49Z</time>
      </trkpt>
      <trkpt lat="50.12475" lon="3.67814">
        <ele>129.92</ele>
        <time>2015-05-17T15:03:02Z</time>
      </trkpt>
      <trkpt lat="50.12477" lon="3.67814">
        <ele>129.92</ele>
        <time>2015-05-17T15:03:03Z</time>
      </trkpt>
      <trkpt lat="50.12481" lon="3.67819">
        <ele>129.92</ele>
        <time>2015-05-17T15:03:06Z</time>
      </trkpt>
      <trkpt lat="50.12483" lon="3.67821">
        <ele>129.92</ele>
        <time>2015-05-17T15:03:07Z</time>
      </trkpt>
      <trkpt lat="50.12485" lon="3.67823">
        <ele>129.92</ele>
        <time>2015-05-17T15:03:08Z</time>
      </trkpt>
      <trkpt lat="50.12487" lon="3.67825">
        <ele>129.92</ele>
        <time>2015-05-17T15:03:09Z</time>
      </trkpt>
      <trkpt lat="50.12488" lon="3.67827">
        <ele>129.92</ele>
        <time>2015-05-17T15:03:10Z</time>
      </trkpt>
      <trkpt lat="50.1249" lon="3.67829">
        <ele>129.92</ele>
        <time>2015-05-17T15:03:11Z</time>
      </trkpt>
      <trkpt lat="50.12492" lon="3.6783">
        <ele>129.92</ele>
        <time>2015-05-17T15:03:12Z</time>
      </trkpt>
      <trkpt lat="50.12494" lon="3.67832">
        <ele>129.92</ele>
        <time>2015-05-17T15:03:13Z</time>
      </trkpt>
      <trkpt lat="50.12495" lon="3.67834">
        <ele>129.92</ele>
        <time>2015-05-17T15:03:14Z</time>
      </trkpt>
      <trkpt lat="50.12497" lon="3.67836">
        <ele>129.92</ele>
        <time>2015-05-17T15:03:15Z</time>
      </trkpt>
      <trkpt lat="50.12498" lon="3.67837">
        <ele>129.92</ele>
        <time>2015-05-17T15:03:16Z</time>
      </trkpt>
      <trkpt lat="50.125" lon="3.67839">
        <ele>129.92</ele>
        <time>2015-05-17T15:03:17Z</time>
      </trkpt>
      <trkpt lat="50.12501" lon="3.6784">
        <ele>129.92</ele>
        <time>2015-05-17T15:03:18Z</time>
      </trkpt>
      <trkpt lat="50.12503" lon="3.67842">
        <ele>129.92</ele>
        <time>2015-05-17T15:03:19Z</time>
      </trkpt>
      <trkpt lat="50.12504" lon="3.67843">
        <ele>129.92</ele>
        <time>2015-05-17T15:03:20Z</time>
      </trkpt>
      <trkpt lat="50.12506" lon="3.67844">
        <ele>129.92</ele>
        <time>2015-05-17T15:03:21Z</time>
      </trkpt>
      <trkpt lat="50.12507" lon="3.67845">
        <ele>129.92</ele>
        <time>2015-05-17T15:03:22Z</time>
      </trkpt>
      <trkpt lat="50.12532" lon="3.67873">
        <ele>129.92</ele>
        <time>2015-05-17T15:03:33Z</time>
      </trkpt>
      <trkpt lat="50.1256" lon="3.67897">
        <ele>129.92</ele>
        <time>2015-05-17T15:03:43Z</time>
      </trkpt>
      <trkpt lat="50.1258" lon="3.67921">
        <ele>129.92</ele>
        <time>2015-05-17T15:03:53Z</time>
      </trkpt>
      <trkpt lat="50.12589" lon="3.67936">
        <ele>129.92</ele>
        <time>2015-05-17T15:03:58Z</time>
      </trkpt>
      <trkpt lat="50.12591" lon="3.67938">
        <ele>129.92</ele>
        <time>2015-05-17T15:03:59Z</time>
      </trkpt>
      <trkpt lat="50.12592" lon="3.67941">
        <ele>129.92</ele>
        <time>2015-05-17T15:04:00Z</time>
      </trkpt>
      <trkpt lat="50.12594" lon="3.67944">
        <ele>129.92</ele>
        <time>2015-05-17T15:04:01Z</time>
      </trkpt>
      <trkpt lat="50.12596" lon="3.67948">
        <ele>129.92</ele>
        <time>2015-05-17T15:04:02Z</time>
      </trkpt>
      <trkpt lat="50.12598" lon="3.67953">
        <ele>129.92</ele>
        <time>2015-05-17T15:04:03Z</time>
      </trkpt>
      <trkpt lat="50.126" lon="3.67957">
        <ele>129.92</ele>
        <time>2015-05-17T15:04:04Z</time>
      </trkpt>
      <trkpt lat="50.12602" lon="3.67961">
        <ele>129.92</ele>
        <time>2015-05-17T15:04:05Z</time>
      </trkpt>
      <trkpt lat="50.12619" lon="3.68001">
        <ele>129.92</ele>
        <time>2015-05-17T15:04:17Z</time>
      </trkpt>
      <trkpt lat="50.12643" lon="3.6805">
        <ele>129.92</ele>
        <time>2015-05-17T15:04:29Z</time>
      </trkpt>
      <trkpt lat="50.12664" lon="3.68094">
        <ele>129.92</ele>
        <time>2015-05-17T15:04:41Z</time>
      </trkpt>
      <trkpt lat="50.12668" lon="3.68108">
        <ele>129.92</ele>
        <time>2015-05-17T15:04:46Z</time>
      </trkpt>
      <trkpt lat="50.12668" lon="3.68109">
        <ele>129.92</ele>
        <time>2015-05-17T15:04:47Z</time>
      </trkpt>
      <trkpt lat="50.12668" lon="3.68111">
        <ele>129.92</ele>
        <time>2015-05-17T15:04:48Z</time>
      </trkpt>
      <trkpt lat="50.12669" lon="3.68113">
        <ele>129.92</ele>
        <time>2015-05-17T15:04:49Z</time>
      </trkpt>
      <trkpt lat="50.1267" lon="3.68116">
        <ele>129.92</ele>
        <time>2015-05-17T15:04:50Z</time>
      </trkpt>
      <trkpt lat="50.12672" lon="3.68119">
        <ele>129.92</ele>
        <time>2015-05-17T15:04:51Z</time>
      </trkpt>
      <trkpt lat="50.12674" lon="3.68122">
        <ele>129.92</ele>
        <time>2015-05-17T15:04:52Z</time>
      </trkpt>
      <trkpt lat="50.1269" lon="3.68152">
        <ele>129.92</ele>
        <time>2015-05-17T15:05:04Z</time>
      </trkpt>
      <trkpt lat="50.12701" lon="3.68166">
        <ele>130.4</ele>
        <time>2015-05-17T15:05:11Z</time>
      </trkpt>
      <trkpt lat="50.12702" lon="3.68169">
        <ele>130.4</ele>
        <time>2015-05-17T15:05:12Z</time>
      </trkpt>
      <trkpt lat="50.12703" lon="3.68172">
        <ele>130.4</ele>
        <time>2015-05-17T15:05:13Z</time>
      </trkpt>
      <trkpt lat="50.12706" lon="3.6818">
        <ele>130.4</ele>
        <time>2015-05-17T15:05:16Z</time>
      </trkpt>
      <trkpt lat="50.12707" lon="3.68184">
        <ele>130.4</ele>
        <time>2015-05-17T15:05:17Z</time>
      </trkpt>
      <trkpt lat="50.12708" lon="3.68187">
        <ele>130.4</ele>
        <time>2015-05-17T15:05:18Z</time>
      </trkpt>
      <trkpt lat="50.12709" lon="3.6819">
        <ele>130.4</ele>
        <time>2015-05-17T15:05:19Z</time>
      </trkpt>
      <trkpt lat="50.12709" lon="3.68193">
        <ele>130.4</ele>
        <time>2015-05-17T15:05:20Z</time>
      </trkpt>
      <trkpt lat="50.1271" lon="3.68196">
        <ele>130.4</ele>
        <time>2015-05-17T15:05:21Z</time>
      </trkpt>
      <trkpt lat="50.12711" lon="3.68199">
        <ele>130.4</ele>
        <time>2015-05-17T15:05:22Z</time>
      </trkpt>
      <trkpt lat="50.12713" lon="3.68203">
        <ele>130.4</ele>
        <time>2015-05-17T15:05:23Z</time>
      </trkpt>
      <trkpt lat="50.12715" lon="3.68206">
        <ele>130.88</ele>
        <time>2015-05-17T15:05:24Z</time>
      </trkpt>
      <trkpt lat="50.12718" lon="3.68209">
        <ele>130.88</ele>
        <time>2015-05-17T15:05:25Z</time>
      </trkpt>
      <trkpt lat="50.1272" lon="3.68212">
        <ele>130.88</ele>
        <time>2015-05-17T15:05:26Z</time>
      </trkpt>
      <trkpt lat="50.12721" lon="3.68215">
        <ele>130.88</ele>
        <time>2015-05-17T15:05:27Z</time>
      </trkpt>
      <trkpt lat="50.12722" lon="3.68218">
        <ele>130.88</ele>
        <time>2015-05-17T15:05:28Z</time>
      </trkpt>
      <trkpt lat="50.12723" lon="3.68221">
        <ele>130.88</ele>
        <time>2015-05-17T15:05:29Z</time>
      </trkpt>
      <trkpt lat="50.12724" lon="3.68224">
        <ele>130.88</ele>
        <time>2015-05-17T15:05:30Z</time>
      </trkpt>
      <trkpt lat="50.12726" lon="3.68233">
        <ele>130.88</ele>
        <time>2015-05-17T15:05:33Z</time>
      </trkpt>
      <trkpt lat="50.12726" lon="3.68237">
        <ele>130.88</ele>
        <time>2015-05-17T15:05:34Z</time>
      </trkpt>
      <trkpt lat="50.12727" lon="3.68239">
        <ele>130.88</ele>
        <time>2015-05-17T15:05:35Z</time>
      </trkpt>
      <trkpt lat="50.12728" lon="3.68241">
        <ele>130.88</ele>
        <time>2015-05-17T15:05:36Z</time>
      </trkpt>
      <trkpt lat="50.1273" lon="3.68243">
        <ele>130.88</ele>
        <time>2015-05-17T15:05:37Z</time>
      </trkpt>
      <trkpt lat="50.12731" lon="3.68246">
        <ele>130.88</ele>
        <time>2015-05-17T15:05:38Z</time>
      </trkpt>
      <trkpt lat="50.12732" lon="3.68249">
        <ele>130.88</ele>
        <time>2015-05-17T15:05:39Z</time>
      </trkpt>
      <trkpt lat="50.12732" lon="3.68252">
        <ele>130.88</ele>
        <time>2015-05-17T15:05:40Z</time>
      </trkpt>
      <trkpt lat="50.12732" lon="3.68255">
        <ele>130.88</ele>
        <time>2015-05-17T15:05:41Z</time>
      </trkpt>
      <trkpt lat="50.12734" lon="3.68257">
        <ele>130.88</ele>
        <time>2015-05-17T15:05:42Z</time>
      </trkpt>
      <trkpt lat="50.12735" lon="3.68259">
        <ele>130.88</ele>
        <time>2015-05-17T15:05:43Z</time>
      </trkpt>
      <trkpt lat="50.12736" lon="3.68263">
        <ele>130.88</ele>
        <time>2015-05-17T15:05:44Z</time>
      </trkpt>
      <trkpt lat="50.12737" lon="3.68267">
        <ele>130.88</ele>
        <time>2015-05-17T15:05:45Z</time>
      </trkpt>
      <trkpt lat="50.12739" lon="3.68272">
        <ele>130.88</ele>
        <time>2015-05-17T15:05:46Z</time>
      </trkpt>
      <trkpt lat="50.12753" lon="3.68317">
        <ele>131.36</ele>
        <time>2015-05-17T15:05:56Z</time>
      </trkpt>
      <trkpt lat="50.12758" lon="3.68325">
        <ele>131.36</ele>
        <time>2015-05-17T15:05:59Z</time>
      </trkpt>
      <trkpt lat="50.12772" lon="3.68373">
        <ele>131.36</ele>
        <time>2015-05-17T15:06:11Z</time>
      </trkpt>
      <trkpt lat="50.12775" lon="3.68378">
        <ele>131.84</ele>
        <time>2015-05-17T15:06:13Z</time>
      </trkpt>
      <trkpt lat="50.12776" lon="3.68381">
        <ele>131.84</ele>
        <time>2015-05-17T15:06:14Z</time>
      </trkpt>
      <trkpt lat="50.12778" lon="3.68384">
        <ele>131.84</ele>
        <time>2015-05-17T15:06:15Z</time>
      </trkpt>
      <trkpt lat="50.1278" lon="3.68393">
        <ele>131.84</ele>
        <time>2015-05-17T15:06:17Z</time>
      </trkpt>
      <trkpt lat="50.12782" lon="3.68406">
        <ele>131.84</ele>
        <time>2015-05-17T15:06:20Z</time>
      </trkpt>
      <trkpt lat="50.12784" lon="3.68409">
        <ele>132.32</ele>
        <time>2015-05-17T15:06:21Z</time>
      </trkpt>
      <trkpt lat="50.12786" lon="3.68412">
        <ele>132.32</ele>
        <time>2015-05-17T15:06:22Z</time>
      </trkpt>
      <trkpt lat="50.12788" lon="3.68415">
        <ele>132.32</ele>
        <time>2015-05-17T15:06:23Z</time>
      </trkpt>
      <trkpt lat="50.12789" lon="3.68418">
        <ele>132.32</ele>
        <time>2015-05-17T15:06:24Z</time>
      </trkpt>
      <trkpt lat="50.1279" lon="3.68421">
        <ele>132.32</ele>
        <time>2015-05-17T15:06:25Z</time>
      </trkpt>
      <trkpt lat="50.12797" lon="3.6844">
        <ele>132.32</ele>
        <time>2015-05-17T15:06:31Z</time>
      </trkpt>
      <trkpt lat="50.12796" lon="3.68442">
        <ele>132.32</ele>
        <time>2015-05-17T15:06:32Z</time>
      </trkpt>
      <trkpt lat="50.12795" lon="3.68445">
        <ele>132.32</ele>
        <time>2015-05-17T15:06:33Z</time>
      </trkpt>
      <trkpt lat="50.12796" lon="3.68448">
        <ele>132.32</ele>
        <time>2015-05-17T15:06:34Z</time>
      </trkpt>
      <trkpt lat="50.12798" lon="3.68449">
        <ele>132.32</ele>
        <time>2015-05-17T15:06:35Z</time>
      </trkpt>
      <trkpt lat="50.128" lon="3.68449">
        <ele>132.32</ele>
        <time>2015-05-17T15:06:36Z</time>
      </trkpt>
      <trkpt lat="50.12803" lon="3.68447">
        <ele>132.32</ele>
        <time>2015-05-17T15:06:37Z</time>
      </trkpt>
      <trkpt lat="50.12806" lon="3.68445">
        <ele>132.32</ele>
        <time>2015-05-17T15:06:38Z</time>
      </trkpt>
      <trkpt lat="50.12808" lon="3.68443">
        <ele>132.32</ele>
        <time>2015-05-17T15:06:39Z</time>
      </trkpt>
      <trkpt lat="50.12824" lon="3.68428">
        <ele>133.28</ele>
        <time>2015-05-17T15:06:46Z</time>
      </trkpt>
      <trkpt lat="50.12826" lon="3.68425">
        <ele>133.28</ele>
        <time>2015-05-17T15:06:47Z</time>
      </trkpt>
      <trkpt lat="50.12828" lon="3.68422">
        <ele>133.28</ele>
        <time>2015-05-17T15:06:48Z</time>
      </trkpt>
      <trkpt lat="50.12849" lon="3.68392">
        <ele>134.24</ele>
        <time>2015-05-17T15:07:02Z</time>
      </trkpt>
      <trkpt lat="50.12851" lon="3.68392">
        <ele>134.24</ele>
        <time>2015-05-17T15:07:03Z</time>
      </trkpt>
      <trkpt lat="50.12853" lon="3.68392">
        <ele>134.24</ele>
        <time>2015-05-17T15:07:04Z</time>
      </trkpt>
      <trkpt lat="50.12855" lon="3.68394">
        <ele>134.72</ele>
        <time>2015-05-17T15:07:05Z</time>
      </trkpt>
      <trkpt lat="50.12856" lon="3.68395">
        <ele>134.72</ele>
        <time>2015-05-17T15:07:06Z</time>
      </trkpt>
      <trkpt lat="50.12858" lon="3.68396">
        <ele>134.72</ele>
        <time>2015-05-17T15:07:07Z</time>
      </trkpt>
      <trkpt lat="50.1286" lon="3.68398">
        <ele>134.72</ele>
        <time>2015-05-17T15:07:08Z</time>
      </trkpt>
      <trkpt lat="50.12861" lon="3.684">
        <ele>134.72</ele>
        <time>2015-05-17T15:07:09Z</time>
      </trkpt>
      <trkpt lat="50.12863" lon="3.68403">
        <ele>134.72</ele>
        <time>2015-05-17T15:07:10Z</time>
      </trkpt>
      <trkpt lat="50.12864" lon="3.68406">
        <ele>135.2</ele>
        <time>2015-05-17T15:07:11Z</time>
      </trkpt>
      <trkpt lat="50.12865" lon="3.68413">
        <ele>135.2</ele>
        <time>2015-05-17T15:07:13Z</time>
      </trkpt>
      <trkpt lat="50.12864" lon="3.68417">
        <ele>135.2</ele>
        <time>2015-05-17T15:07:14Z</time>
      </trkpt>
      <trkpt lat="50.12863" lon="3.6842">
        <ele>135.2</ele>
        <time>2015-05-17T15:07:15Z</time>
      </trkpt>
      <trkpt lat="50.12862" lon="3.68424">
        <ele>135.2</ele>
        <time>2015-05-17T15:07:16Z</time>
      </trkpt>
      <trkpt lat="50.12846" lon="3.68474">
        <ele>133.76</ele>
        <time>2015-05-17T15:07:29Z</time>
      </trkpt>
      <trkpt lat="50.12829" lon="3.68537">
        <ele>133.28</ele>
        <time>2015-05-17T15:07:45Z</time>
      </trkpt>
      <trkpt lat="50.12819" lon="3.68571">
        <ele>132.8</ele>
        <time>2015-05-17T15:07:55Z</time>
      </trkpt>
      <trkpt lat="50.12818" lon="3.68572">
        <ele>132.8</ele>
        <time>2015-05-17T15:07:56Z</time>
      </trkpt>
      <trkpt lat="50.12816" lon="3.6857">
        <ele>132.32</ele>
        <time>2015-05-17T15:08:06Z</time>
      </trkpt>
      <trkpt lat="50.12816" lon="3.68568">
        <ele>132.32</ele>
        <time>2015-05-17T15:08:07Z</time>
      </trkpt>
      <trkpt lat="50.12817" lon="3.6856">
        <ele>133.76</ele>
        <time>2015-05-17T15:08:13Z</time>
      </trkpt>
      <trkpt lat="50.12817" lon="3.68558">
        <ele>133.76</ele>
        <time>2015-05-17T15:08:14Z</time>
      </trkpt>
      <trkpt lat="50.12818" lon="3.68555">
        <ele>133.76</ele>
        <time>2015-05-17T15:08:15Z</time>
      </trkpt>
      <trkpt lat="50.12819" lon="3.68551">
        <ele>133.76</ele>
        <time>2015-05-17T15:08:16Z</time>
      </trkpt>
      <trkpt lat="50.1282" lon="3.68548">
        <ele>133.76</ele>
        <time>2015-05-17T15:08:17Z</time>
      </trkpt>
      <trkpt lat="50.12831" lon="3.68502">
        <ele>135.2</ele>
        <time>2015-05-17T15:08:31Z</time>
      </trkpt>
      <trkpt lat="50.12838" lon="3.68466">
        <ele>137.13</ele>
        <time>2015-05-17T15:08:44Z</time>
      </trkpt>
      <trkpt lat="50.12839" lon="3.68456">
        <ele>137.13</ele>
        <time>2015-05-17T15:08:48Z</time>
      </trkpt>
      <trkpt lat="50.1284" lon="3.68454">
        <ele>137.61</ele>
        <time>2015-05-17T15:08:49Z</time>
      </trkpt>
      <trkpt lat="50.1284" lon="3.68452">
        <ele>137.61</ele>
        <time>2015-05-17T15:08:50Z</time>
      </trkpt>
      <trkpt lat="50.12845" lon="3.68435">
        <ele>138.57</ele>
        <time>2015-05-17T15:09:03Z</time>
      </trkpt>
      <trkpt lat="50.12858" lon="3.68397">
        <ele>140.49</ele>
        <time>2015-05-17T15:09:19Z</time>
      </trkpt>
      <trkpt lat="50.12876" lon="3.6837">
        <ele>142.41</ele>
        <time>2015-05-17T15:09:36Z</time>
      </trkpt>
      <trkpt lat="50.12885" lon="3.6836">
        <ele>141.93</ele>
        <time>2015-05-17T15:09:47Z</time>
      </trkpt>
      <trkpt lat="50.12909" lon="3.68339">
        <ele>142.89</ele>
        <time>2015-05-17T15:10:04Z</time>
      </trkpt>
      <trkpt lat="50.1294" lon="3.68324">
        <ele>140.97</ele>
        <time>2015-05-17T15:10:19Z</time>
      </trkpt>
      <trkpt lat="50.12961" lon="3.68316">
        <ele>139.53</ele>
        <time>2015-05-17T15:10:32Z</time>
      </trkpt>
      <trkpt lat="50.12965" lon="3.68317">
        <ele>139.53</ele>
        <time>2015-05-17T15:10:40Z</time>
      </trkpt>
      <trkpt lat="50.12967" lon="3.68318">
        <ele>139.53</ele>
        <time>2015-05-17T15:10:41Z</time>
      </trkpt>
      <trkpt lat="50.12968" lon="3.68318">
        <ele>139.53</ele>
        <time>2015-05-17T15:10:42Z</time>
      </trkpt>
      <trkpt lat="50.1297" lon="3.68318">
        <ele>139.53</ele>
        <time>2015-05-17T15:10:43Z</time>
      </trkpt>
      <trkpt lat="50.12971" lon="3.68318">
        <ele>139.53</ele>
        <time>2015-05-17T15:10:44Z</time>
      </trkpt>
      <trkpt lat="50.12973" lon="3.68318">
        <ele>139.53</ele>
        <time>2015-05-17T15:10:45Z</time>
      </trkpt>
      <trkpt lat="50.12986" lon="3.68313">
        <ele>139.05</ele>
        <time>2015-05-17T15:10:52Z</time>
      </trkpt>
      <trkpt lat="50.13008" lon="3.68308">
        <ele>140.49</ele>
        <time>2015-05-17T15:11:03Z</time>
      </trkpt>
      <trkpt lat="50.13017" lon="3.68305">
        <ele>140.97</ele>
        <time>2015-05-17T15:11:08Z</time>
      </trkpt>
      <trkpt lat="50.13019" lon="3.68304">
        <ele>140.97</ele>
        <time>2015-05-17T15:11:09Z</time>
      </trkpt>
      <trkpt lat="50.13021" lon="3.68303">
        <ele>141.93</ele>
        <time>2015-05-17T15:11:10Z</time>
      </trkpt>
      <trkpt lat="50.13023" lon="3.68303">
        <ele>141.93</ele>
        <time>2015-05-17T15:11:11Z</time>
      </trkpt>
      <trkpt lat="50.13025" lon="3.68302">
        <ele>141.93</ele>
        <time>2015-05-17T15:11:12Z</time>
      </trkpt>
      <trkpt lat="50.13028" lon="3.68301">
        <ele>141.93</ele>
        <time>2015-05-17T15:11:13Z</time>
      </trkpt>
      <trkpt lat="50.13051" lon="3.68292">
        <ele>143.85</ele>
        <time>2015-05-17T15:11:22Z</time>
      </trkpt>
      <trkpt lat="50.13053" lon="3.68291">
        <ele>143.85</ele>
        <time>2015-05-17T15:11:23Z</time>
      </trkpt>
      <trkpt lat="50.13055" lon="3.6829">
        <ele>143.85</ele>
        <time>2015-05-17T15:11:24Z</time>
      </trkpt>
      <trkpt lat="50.13057" lon="3.6829">
        <ele>143.85</ele>
        <time>2015-05-17T15:11:25Z</time>
      </trkpt>
      <trkpt lat="50.13059" lon="3.68289">
        <ele>143.85</ele>
        <time>2015-05-17T15:11:26Z</time>
      </trkpt>
      <trkpt lat="50.13061" lon="3.68288">
        <ele>143.85</ele>
        <time>2015-05-17T15:11:27Z</time>
      </trkpt>
      <trkpt lat="50.13064" lon="3.68287">
        <ele>144.34</ele>
        <time>2015-05-17T15:11:28Z</time>
      </trkpt>
      <trkpt lat="50.13067" lon="3.68286">
        <ele>144.34</ele>
        <time>2015-05-17T15:11:29Z</time>
      </trkpt>
      <trkpt lat="50.13087" lon="3.6828">
        <ele>145.78</ele>
        <time>2015-05-17T15:11:42Z</time>
      </trkpt>
      <trkpt lat="50.131" lon="3.68271">
        <ele>147.22</ele>
        <time>2015-05-17T15:11:58Z</time>
      </trkpt>
      <trkpt lat="50.13114" lon="3.68264">
        <ele>147.7</ele>
        <time>2015-05-17T15:12:12Z</time>
      </trkpt>
      <trkpt lat="50.13118" lon="3.68262">
        <ele>147.7</ele>
        <time>2015-05-17T15:12:26Z</time>
      </trkpt>
      <trkpt lat="50.13132" lon="3.68252">
        <ele>149.14</ele>
        <time>2015-05-17T15:12:41Z</time>
      </trkpt>
      <trkpt lat="50.13146" lon="3.6824">
        <ele>150.58</ele>
        <time>2015-05-17T15:12:57Z</time>
      </trkpt>
      <trkpt lat="50.13156" lon="3.68232">
        <ele>151.06</ele>
        <time>2015-05-17T15:13:11Z</time>
      </trkpt>
      <trkpt lat="50.13161" lon="3.68228">
        <ele>151.54</ele>
        <time>2015-05-17T15:13:14Z</time>
      </trkpt>
      <trkpt lat="50.13174" lon="3.68217">
        <ele>152.03</ele>
        <time>2015-05-17T15:13:22Z</time>
      </trkpt>
      <trkpt lat="50.13176" lon="3.68216">
        <ele>152.03</ele>
        <time>2015-05-17T15:13:23Z</time>
      </trkpt>
      <trkpt lat="50.13178" lon="3.68215">
        <ele>152.51</ele>
        <time>2015-05-17T15:13:24Z</time>
      </trkpt>
      <trkpt lat="50.13194" lon="3.68196">
        <ele>152.99</ele>
        <time>2015-05-17T15:13:36Z</time>
      </trkpt>
      <trkpt lat="50.13204" lon="3.68185">
        <ele>153.95</ele>
        <time>2015-05-17T15:13:48Z</time>
      </trkpt>
      <trkpt lat="50.13206" lon="3.68186">
        <ele>153.95</ele>
        <time>2015-05-17T15:13:52Z</time>
      </trkpt>
      <trkpt lat="50.13206" lon="3.68187">
        <ele>153.95</ele>
        <time>2015-05-17T15:13:53Z</time>
      </trkpt>
      <trkpt lat="50.13206" lon="3.6819">
        <ele>153.95</ele>
        <time>2015-05-17T15:13:54Z</time>
      </trkpt>
      <trkpt lat="50.13207" lon="3.68193">
        <ele>153.95</ele>
        <time>2015-05-17T15:13:55Z</time>
      </trkpt>
      <trkpt lat="50.13208" lon="3.68195">
        <ele>153.95</ele>
        <time>2015-05-17T15:13:56Z</time>
      </trkpt>
      <trkpt lat="50.13209" lon="3.68197">
        <ele>153.95</ele>
        <time>2015-05-17T15:13:57Z</time>
      </trkpt>
      <trkpt lat="50.1321" lon="3.682">
        <ele>153.95</ele>
        <time>2015-05-17T15:13:58Z</time>
      </trkpt>
      <trkpt lat="50.13211" lon="3.68202">
        <ele>153.95</ele>
        <time>2015-05-17T15:13:59Z</time>
      </trkpt>
      <trkpt lat="50.13228" lon="3.68244">
        <ele>154.43</ele>
        <time>2015-05-17T15:14:14Z</time>
      </trkpt>
      <trkpt lat="50.13232" lon="3.68255">
        <ele>154.43</ele>
        <time>2015-05-17T15:14:18Z</time>
      </trkpt>
      <trkpt lat="50.13233" lon="3.68257">
        <ele>154.91</ele>
        <time>2015-05-17T15:14:19Z</time>
      </trkpt>
      <trkpt lat="50.13235" lon="3.6826">
        <ele>154.91</ele>
        <time>2015-05-17T15:14:20Z</time>
      </trkpt>
      <trkpt lat="50.13236" lon="3.68262">
        <ele>154.91</ele>
        <time>2015-05-17T15:14:21Z</time>
      </trkpt>
      <trkpt lat="50.13243" lon="3.68274">
        <ele>154.91</ele>
        <time>2015-05-17T15:14:30Z</time>
      </trkpt>
      <trkpt lat="50.13263" lon="3.68296">
        <ele>154.91</ele>
        <time>2015-05-17T15:14:44Z</time>
      </trkpt>
      <trkpt lat="50.13283" lon="3.68314">
        <ele>154.91</ele>
        <time>2015-05-17T15:14:57Z</time>
      </trkpt>
      <trkpt lat="50.13307" lon="3.68329">
        <ele>154.91</ele>
        <time>2015-05-17T15:15:09Z</time>
      </trkpt>
      <trkpt lat="50.13335" lon="3.68345">
        <ele>154.91</ele>
        <time>2015-05-17T15:15:23Z</time>
      </trkpt>
      <trkpt lat="50.13369" lon="3.68366">
        <ele>154.91</ele>
        <time>2015-05-17T15:15:42Z</time>
      </trkpt>
      <trkpt lat="50.13385" lon="3.68373">
        <ele>155.39</ele>
        <time>2015-05-17T15:15:52Z</time>
      </trkpt>
      <trkpt lat="50.13386" lon="3.68374">
        <ele>155.39</ele>
        <time>2015-05-17T15:15:53Z</time>
      </trkpt>
      <trkpt lat="50.13412" lon="3.68388">
        <ele>153.95</ele>
        <time>2015-05-17T15:16:06Z</time>
      </trkpt>
      <trkpt lat="50.13447" lon="3.68405">
        <ele>153.95</ele>
        <time>2015-05-17T15:16:21Z</time>
      </trkpt>
      <trkpt lat="50.13479" lon="3.6842">
        <ele>155.39</ele>
        <time>2015-05-17T15:16:37Z</time>
      </trkpt>
      <trkpt lat="50.13481" lon="3.68421">
        <ele>155.39</ele>
        <time>2015-05-17T15:16:38Z</time>
      </trkpt>
      <trkpt lat="50.13483" lon="3.68422">
        <ele>155.39</ele>
        <time>2015-05-17T15:16:39Z</time>
      </trkpt>
      <trkpt lat="50.13485" lon="3.68424">
        <ele>155.39</ele>
        <time>2015-05-17T15:16:40Z</time>
      </trkpt>
      <trkpt lat="50.13487" lon="3.68425">
        <ele>155.39</ele>
        <time>2015-05-17T15:16:41Z</time>
      </trkpt>
      <trkpt lat="50.13488" lon="3.68426">
        <ele>155.39</ele>
        <time>2015-05-17T15:16:42Z</time>
      </trkpt>
      <trkpt lat="50.1349" lon="3.68427">
        <ele>155.39</ele>
        <time>2015-05-17T15:16:43Z</time>
      </trkpt>
      <trkpt lat="50.13491" lon="3.68428">
        <ele>155.39</ele>
        <time>2015-05-17T15:16:44Z</time>
      </trkpt>
      <trkpt lat="50.13492" lon="3.6843">
        <ele>155.39</ele>
        <time>2015-05-17T15:16:45Z</time>
      </trkpt>
      <trkpt lat="50.13493" lon="3.68431">
        <ele>155.39</ele>
        <time>2015-05-17T15:16:46Z</time>
      </trkpt>
      <trkpt lat="50.13495" lon="3.68432">
        <ele>155.39</ele>
        <time>2015-05-17T15:16:47Z</time>
      </trkpt>
      <trkpt lat="50.13513" lon="3.68453">
        <ele>155.87</ele>
        <time>2015-05-17T15:16:59Z</time>
      </trkpt>
      <trkpt lat="50.13514" lon="3.68455">
        <ele>155.87</ele>
        <time>2015-05-17T15:17:00Z</time>
      </trkpt>
      <trkpt lat="50.13528" lon="3.68469">
        <ele>156.83</ele>
        <time>2015-05-17T15:17:10Z</time>
      </trkpt>
      <trkpt lat="50.1353" lon="3.68471">
        <ele>156.83</ele>
        <time>2015-05-17T15:17:11Z</time>
      </trkpt>
      <trkpt lat="50.13531" lon="3.68473">
        <ele>156.83</ele>
        <time>2015-05-17T15:17:12Z</time>
      </trkpt>
      <trkpt lat="50.13533" lon="3.68475">
        <ele>156.83</ele>
        <time>2015-05-17T15:17:13Z</time>
      </trkpt>
      <trkpt lat="50.13534" lon="3.68476">
        <ele>156.83</ele>
        <time>2015-05-17T15:17:14Z</time>
      </trkpt>
      <trkpt lat="50.13536" lon="3.68478">
        <ele>156.83</ele>
        <time>2015-05-17T15:17:15Z</time>
      </trkpt>
      <trkpt lat="50.13537" lon="3.6848">
        <ele>156.83</ele>
        <time>2015-05-17T15:17:16Z</time>
      </trkpt>
      <trkpt lat="50.13539" lon="3.68481">
        <ele>156.83</ele>
        <time>2015-05-17T15:17:17Z</time>
      </trkpt>
      <trkpt lat="50.1354" lon="3.68482">
        <ele>156.83</ele>
        <time>2015-05-17T15:17:18Z</time>
      </trkpt>
      <trkpt lat="50.13558" lon="3.68504">
        <ele>157.79</ele>
        <time>2015-05-17T15:17:32Z</time>
      </trkpt>
      <trkpt lat="50.13578" lon="3.6853">
        <ele>158.75</ele>
        <time>2015-05-17T15:17:47Z</time>
      </trkpt>
      <trkpt lat="50.13601" lon="3.68553">
        <ele>160.68</ele>
        <time>2015-05-17T15:18:00Z</time>
      </trkpt>
      <trkpt lat="50.13608" lon="3.68568">
        <ele>160.68</ele>
        <time>2015-05-17T15:18:13Z</time>
      </trkpt>
      <trkpt lat="50.13609" lon="3.68566">
        <ele>160.68</ele>
        <time>2015-05-17T15:18:24Z</time>
      </trkpt>
      <trkpt lat="50.1361" lon="3.68564">
        <ele>160.68</ele>
        <time>2015-05-17T15:18:45Z</time>
      </trkpt>
      <trkpt lat="50.13609" lon="3.68562">
        <ele>160.68</ele>
        <time>2015-05-17T15:19:02Z</time>
      </trkpt>
      <trkpt lat="50.13614" lon="3.6856">
        <ele>160.68</ele>
        <time>2015-05-17T15:19:11Z</time>
      </trkpt>
      <trkpt lat="50.13645" lon="3.68578">
        <ele>159.24</ele>
        <time>2015-05-17T15:19:23Z</time>
      </trkpt>
      <trkpt lat="50.13687" lon="3.68602">
        <ele>157.79</ele>
        <time>2015-05-17T15:19:36Z</time>
      </trkpt>
      <trkpt lat="50.13734" lon="3.68627">
        <ele>157.79</ele>
        <time>2015-05-17T15:19:51Z</time>
      </trkpt>
      <trkpt lat="50.13773" lon="3.68646">
        <ele>157.79</ele>
        <time>2015-05-17T15:20:05Z</time>
      </trkpt>
      <trkpt lat="50.13805" lon="3.68659">
        <ele>157.79</ele>
        <time>2015-05-17T15:20:18Z</time>
      </trkpt>
      <trkpt lat="50.13846" lon="3.68677">
        <ele>157.79</ele>
        <time>2015-05-17T15:20:35Z</time>
      </trkpt>
      <trkpt lat="50.13875" lon="3.68688">
        <ele>157.79</ele>
        <time>2015-05-17T15:20:48Z</time>
      </trkpt>
      <trkpt lat="50.13883" lon="3.68691">
        <ele>159.24</ele>
        <time>2015-05-17T15:20:52Z</time>
      </trkpt>
      <trkpt lat="50.13908" lon="3.68704">
        <ele>160.2</ele>
        <time>2015-05-17T15:21:04Z</time>
      </trkpt>
      <trkpt lat="50.13919" lon="3.6871">
        <ele>160.2</ele>
        <time>2015-05-17T15:21:10Z</time>
      </trkpt>
      <trkpt lat="50.1392" lon="3.68711">
        <ele>160.68</ele>
        <time>2015-05-17T15:21:11Z</time>
      </trkpt>
      <trkpt lat="50.13944" lon="3.68726">
        <ele>161.64</ele>
        <time>2015-05-17T15:21:26Z</time>
      </trkpt>
      <trkpt lat="50.13962" lon="3.68736">
        <ele>162.6</ele>
        <time>2015-05-17T15:21:39Z</time>
      </trkpt>
      <trkpt lat="50.13967" lon="3.6874">
        <ele>163.08</ele>
        <time>2015-05-17T15:21:43Z</time>
      </trkpt>
      <trkpt lat="50.13968" lon="3.6874">
        <ele>163.08</ele>
        <time>2015-05-17T15:21:44Z</time>
      </trkpt>
      <trkpt lat="50.13969" lon="3.68741">
        <ele>163.08</ele>
        <time>2015-05-17T15:21:45Z</time>
      </trkpt>
      <trkpt lat="50.1397" lon="3.68742">
        <ele>163.08</ele>
        <time>2015-05-17T15:21:46Z</time>
      </trkpt>
      <trkpt lat="50.13972" lon="3.68743">
        <ele>163.08</ele>
        <time>2015-05-17T15:21:47Z</time>
      </trkpt>
      <trkpt lat="50.13994" lon="3.68757">
        <ele>164.04</ele>
        <time>2015-05-17T15:22:03Z</time>
      </trkpt>
      <trkpt lat="50.13996" lon="3.68758">
        <ele>164.04</ele>
        <time>2015-05-17T15:22:04Z</time>
      </trkpt>
      <trkpt lat="50.13997" lon="3.68759">
        <ele>164.04</ele>
        <time>2015-05-17T15:22:05Z</time>
      </trkpt>
      <trkpt lat="50.14005" lon="3.68764">
        <ele>164.04</ele>
        <time>2015-05-17T15:22:11Z</time>
      </trkpt>
      <trkpt lat="50.14007" lon="3.68765">
        <ele>164.52</ele>
        <time>2015-05-17T15:22:12Z</time>
      </trkpt>
      <trkpt lat="50.14008" lon="3.68766">
        <ele>164.52</ele>
        <time>2015-05-17T15:22:13Z</time>
      </trkpt>
      <trkpt lat="50.1401" lon="3.68767">
        <ele>164.52</ele>
        <time>2015-05-17T15:22:14Z</time>
      </trkpt>
      <trkpt lat="50.14012" lon="3.68768">
        <ele>164.52</ele>
        <time>2015-05-17T15:22:15Z</time>
      </trkpt>
      <trkpt lat="50.14013" lon="3.68769">
        <ele>164.52</ele>
        <time>2015-05-17T15:22:16Z</time>
      </trkpt>
      <trkpt lat="50.14015" lon="3.6877">
        <ele>164.52</ele>
        <time>2015-05-17T15:22:17Z</time>
      </trkpt>
      <trkpt lat="50.14034" lon="3.68781">
        <ele>165</ele>
        <time>2015-05-17T15:22:28Z</time>
      </trkpt>
      <trkpt lat="50.14035" lon="3.68782">
        <ele>165</ele>
        <time>2015-05-17T15:22:29Z</time>
      </trkpt>
      <trkpt lat="50.14036" lon="3.68783">
        <ele>165</ele>
        <time>2015-05-17T15:22:30Z</time>
      </trkpt>
      <trkpt lat="50.14048" lon="3.68791">
        <ele>165.48</ele>
        <time>2015-05-17T15:22:38Z</time>
      </trkpt>
      <trkpt lat="50.14049" lon="3.68792">
        <ele>165.48</ele>
        <time>2015-05-17T15:22:39Z</time>
      </trkpt>
      <trkpt lat="50.1405" lon="3.68793">
        <ele>165.48</ele>
        <time>2015-05-17T15:22:40Z</time>
      </trkpt>
      <trkpt lat="50.14052" lon="3.68794">
        <ele>165.48</ele>
        <time>2015-05-17T15:22:41Z</time>
      </trkpt>
      <trkpt lat="50.14054" lon="3.68795">
        <ele>165.48</ele>
        <time>2015-05-17T15:22:42Z</time>
      </trkpt>
      <trkpt lat="50.14057" lon="3.68796">
        <ele>165.96</ele>
        <time>2015-05-17T15:22:44Z</time>
      </trkpt>
      <trkpt lat="50.14058" lon="3.68797">
        <ele>165.96</ele>
        <time>2015-05-17T15:22:45Z</time>
      </trkpt>
      <trkpt lat="50.1406" lon="3.68798">
        <ele>165.96</ele>
        <time>2015-05-17T15:22:46Z</time>
      </trkpt>
      <trkpt lat="50.14061" lon="3.68798">
        <ele>165.96</ele>
        <time>2015-05-17T15:22:47Z</time>
      </trkpt>
      <trkpt lat="50.14063" lon="3.688">
        <ele>165.96</ele>
        <time>2015-05-17T15:22:48Z</time>
      </trkpt>
      <trkpt lat="50.14064" lon="3.68801">
        <ele>165.96</ele>
        <time>2015-05-17T15:22:49Z</time>
      </trkpt>
      <trkpt lat="50.14088" lon="3.68815">
        <ele>165.96</ele>
        <time>2015-05-17T15:23:04Z</time>
      </trkpt>
      <trkpt lat="50.14114" lon="3.68834">
        <ele>165.96</ele>
        <time>2015-05-17T15:23:17Z</time>
      </trkpt>
      <trkpt lat="50.14139" lon="3.68854">
        <ele>165</ele>
        <time>2015-05-17T15:23:32Z</time>
      </trkpt>
      <trkpt lat="50.14152" lon="3.68863">
        <ele>165</ele>
        <time>2015-05-17T15:23:40Z</time>
      </trkpt>
      <trkpt lat="50.14153" lon="3.68864">
        <ele>165</ele>
        <time>2015-05-17T15:23:41Z</time>
      </trkpt>
      <trkpt lat="50.14155" lon="3.68865">
        <ele>165</ele>
        <time>2015-05-17T15:23:42Z</time>
      </trkpt>
      <trkpt lat="50.14176" lon="3.68884">
        <ele>164.52</ele>
        <time>2015-05-17T15:23:56Z</time>
      </trkpt>
      <trkpt lat="50.14202" lon="3.68905">
        <ele>164.04</ele>
        <time>2015-05-17T15:24:10Z</time>
      </trkpt>
      <trkpt lat="50.14219" lon="3.68918">
        <ele>164.04</ele>
        <time>2015-05-17T15:24:19Z</time>
      </trkpt>
      <trkpt lat="50.14221" lon="3.68918">
        <ele>164.04</ele>
        <time>2015-05-17T15:24:20Z</time>
      </trkpt>
      <trkpt lat="50.14222" lon="3.68919">
        <ele>164.04</ele>
        <time>2015-05-17T15:24:21Z</time>
      </trkpt>
      <trkpt lat="50.14249" lon="3.68936">
        <ele>163.56</ele>
        <time>2015-05-17T15:24:35Z</time>
      </trkpt>
      <trkpt lat="50.14251" lon="3.68937">
        <ele>163.56</ele>
        <time>2015-05-17T15:24:36Z</time>
      </trkpt>
      <trkpt lat="50.14277" lon="3.68957">
        <ele>163.56</ele>
        <time>2015-05-17T15:24:50Z</time>
      </trkpt>
      <trkpt lat="50.14285" lon="3.68965">
        <ele>165</ele>
        <time>2015-05-17T15:24:55Z</time>
      </trkpt>
      <trkpt lat="50.14292" lon="3.68978">
        <ele>165.96</ele>
        <time>2015-05-17T15:25:02Z</time>
      </trkpt>
      <trkpt lat="50.14293" lon="3.6898">
        <ele>165.96</ele>
        <time>2015-05-17T15:25:03Z</time>
      </trkpt>
      <trkpt lat="50.14294" lon="3.68982">
        <ele>165.96</ele>
        <time>2015-05-17T15:25:04Z</time>
      </trkpt>
      <trkpt lat="50.14306" lon="3.69013">
        <ele>166.93</ele>
        <time>2015-05-17T15:25:19Z</time>
      </trkpt>
      <trkpt lat="50.14311" lon="3.69022">
        <ele>166.93</ele>
        <time>2015-05-17T15:25:30Z</time>
      </trkpt>
      <trkpt lat="50.14313" lon="3.69028">
        <ele>167.41</ele>
        <time>2015-05-17T15:25:44Z</time>
      </trkpt>
      <trkpt lat="50.14312" lon="3.69027">
        <ele>167.41</ele>
        <time>2015-05-17T15:26:09Z</time>
      </trkpt>
      <trkpt lat="50.14311" lon="3.69033">
        <ele>167.41</ele>
        <time>2015-05-17T15:26:35Z</time>
      </trkpt>
      <trkpt lat="50.14319" lon="3.69039">
        <ele>167.41</ele>
        <time>2015-05-17T15:26:51Z</time>
      </trkpt>
      <trkpt lat="50.14331" lon="3.69066">
        <ele>167.89</ele>
        <time>2015-05-17T15:27:03Z</time>
      </trkpt>
      <trkpt lat="50.14331" lon="3.6907">
        <ele>167.89</ele>
        <time>2015-05-17T15:27:14Z</time>
      </trkpt>
      <trkpt lat="50.14332" lon="3.69071">
        <ele>167.89</ele>
        <time>2015-05-17T15:27:15Z</time>
      </trkpt>
      <trkpt lat="50.14333" lon="3.69073">
        <ele>167.89</ele>
        <time>2015-05-17T15:27:16Z</time>
      </trkpt>
      <trkpt lat="50.14334" lon="3.69075">
        <ele>167.89</ele>
        <time>2015-05-17T15:27:17Z</time>
      </trkpt>
      <trkpt lat="50.14336" lon="3.69077">
        <ele>167.89</ele>
        <time>2015-05-17T15:27:18Z</time>
      </trkpt>
      <trkpt lat="50.14338" lon="3.6908">
        <ele>167.89</ele>
        <time>2015-05-17T15:27:19Z</time>
      </trkpt>
      <trkpt lat="50.14358" lon="3.69119">
        <ele>168.37</ele>
        <time>2015-05-17T15:27:32Z</time>
      </trkpt>
      <trkpt lat="50.14376" lon="3.69153">
        <ele>169.33</ele>
        <time>2015-05-17T15:27:46Z</time>
      </trkpt>
      <trkpt lat="50.14391" lon="3.69187">
        <ele>169.33</ele>
        <time>2015-05-17T15:27:59Z</time>
      </trkpt>
      <trkpt lat="50.14402" lon="3.69209">
        <ele>169.33</ele>
        <time>2015-05-17T15:28:09Z</time>
      </trkpt>
      <trkpt lat="50.14404" lon="3.69211">
        <ele>169.33</ele>
        <time>2015-05-17T15:28:10Z</time>
      </trkpt>
      <trkpt lat="50.14426" lon="3.69218">
        <ele>169.81</ele>
        <time>2015-05-17T15:28:24Z</time>
      </trkpt>
      <trkpt lat="50.14448" lon="3.69214">
        <ele>169.81</ele>
        <time>2015-05-17T15:28:39Z</time>
      </trkpt>
      <trkpt lat="50.14458" lon="3.69192">
        <ele>169.81</ele>
        <time>2015-05-17T15:28:49Z</time>
      </trkpt>
      <trkpt lat="50.14473" lon="3.69152">
        <ele>169.81</ele>
        <time>2015-05-17T15:29:05Z</time>
      </trkpt>
      <trkpt lat="50.14485" lon="3.69117">
        <ele>169.81</ele>
        <time>2015-05-17T15:29:18Z</time>
      </trkpt>
      <trkpt lat="50.14497" lon="3.69089">
        <ele>168.85</ele>
        <time>2015-05-17T15:29:26Z</time>
      </trkpt>
      <trkpt lat="50.14521" lon="3.6903">
        <ele>168.37</ele>
        <time>2015-05-17T15:29:41Z</time>
      </trkpt>
      <trkpt lat="50.14533" lon="3.68992">
        <ele>167.89</ele>
        <time>2015-05-17T15:29:52Z</time>
      </trkpt>
      <trkpt lat="50.14551" lon="3.68946">
        <ele>167.89</ele>
        <time>2015-05-17T15:30:04Z</time>
      </trkpt>
      <trkpt lat="50.14569" lon="3.68903">
        <ele>166.93</ele>
        <time>2015-05-17T15:30:15Z</time>
      </trkpt>
      <trkpt lat="50.14588" lon="3.68853">
        <ele>165.48</ele>
        <time>2015-05-17T15:30:28Z</time>
      </trkpt>
      <trkpt lat="50.1461" lon="3.68803">
        <ele>164.04</ele>
        <time>2015-05-17T15:30:41Z</time>
      </trkpt>
      <trkpt lat="50.14631" lon="3.68755">
        <ele>163.08</ele>
        <time>2015-05-17T15:30:54Z</time>
      </trkpt>
      <trkpt lat="50.14648" lon="3.68709">
        <ele>161.64</ele>
        <time>2015-05-17T15:31:06Z</time>
      </trkpt>
      <trkpt lat="50.14651" lon="3.68692">
        <ele>160.68</ele>
        <time>2015-05-17T15:31:14Z</time>
      </trkpt>
      <trkpt lat="50.14666" lon="3.68645">
        <ele>158.75</ele>
        <time>2015-05-17T15:31:26Z</time>
      </trkpt>
      <trkpt lat="50.14674" lon="3.6863">
        <ele>157.79</ele>
        <time>2015-05-17T15:31:32Z</time>
      </trkpt>
      <trkpt lat="50.14675" lon="3.68629">
        <ele>157.79</ele>
        <time>2015-05-17T15:31:33Z</time>
      </trkpt>
      <trkpt lat="50.14676" lon="3.68628">
        <ele>158.27</ele>
        <time>2015-05-17T15:31:34Z</time>
      </trkpt>
      <trkpt lat="50.14677" lon="3.68627">
        <ele>158.27</ele>
        <time>2015-05-17T15:31:35Z</time>
      </trkpt>
      <trkpt lat="50.14679" lon="3.68624">
        <ele>158.27</ele>
        <time>2015-05-17T15:31:36Z</time>
      </trkpt>
      <trkpt lat="50.14679" lon="3.68621">
        <ele>158.27</ele>
        <time>2015-05-17T15:31:37Z</time>
      </trkpt>
      <trkpt lat="50.1468" lon="3.68617">
        <ele>158.27</ele>
        <time>2015-05-17T15:31:38Z</time>
      </trkpt>
      <trkpt lat="50.1468" lon="3.68614">
        <ele>158.27</ele>
        <time>2015-05-17T15:31:39Z</time>
      </trkpt>
      <trkpt lat="50.14679" lon="3.68611">
        <ele>158.27</ele>
        <time>2015-05-17T15:31:40Z</time>
      </trkpt>
      <trkpt lat="50.14678" lon="3.68607">
        <ele>158.27</ele>
        <time>2015-05-17T15:31:41Z</time>
      </trkpt>
      <trkpt lat="50.14678" lon="3.68604">
        <ele>158.27</ele>
        <time>2015-05-17T15:31:42Z</time>
      </trkpt>
      <trkpt lat="50.14676" lon="3.686">
        <ele>158.27</ele>
        <time>2015-05-17T15:31:43Z</time>
      </trkpt>
      <trkpt lat="50.14675" lon="3.68597">
        <ele>158.27</ele>
        <time>2015-05-17T15:31:44Z</time>
      </trkpt>
      <trkpt lat="50.14674" lon="3.68594">
        <ele>158.27</ele>
        <time>2015-05-17T15:31:45Z</time>
      </trkpt>
      <trkpt lat="50.14657" lon="3.68551">
        <ele>157.79</ele>
        <time>2015-05-17T15:32:01Z</time>
      </trkpt>
      <trkpt lat="50.14636" lon="3.68509">
        <ele>157.79</ele>
        <time>2015-05-17T15:32:16Z</time>
      </trkpt>
      <trkpt lat="50.14622" lon="3.68476">
        <ele>159.24</ele>
        <time>2015-05-17T15:32:29Z</time>
      </trkpt>
      <trkpt lat="50.14607" lon="3.68446">
        <ele>159.72</ele>
        <time>2015-05-17T15:32:42Z</time>
      </trkpt>
      <trkpt lat="50.14607" lon="3.68444">
        <ele>159.72</ele>
        <time>2015-05-17T15:32:43Z</time>
      </trkpt>
      <trkpt lat="50.14606" lon="3.68442">
        <ele>159.72</ele>
        <time>2015-05-17T15:32:44Z</time>
      </trkpt>
      <trkpt lat="50.14601" lon="3.68432">
        <ele>160.2</ele>
        <time>2015-05-17T15:32:49Z</time>
      </trkpt>
      <trkpt lat="50.14601" lon="3.6843">
        <ele>160.2</ele>
        <time>2015-05-17T15:32:50Z</time>
      </trkpt>
      <trkpt lat="50.146" lon="3.68427">
        <ele>160.2</ele>
        <time>2015-05-17T15:32:51Z</time>
      </trkpt>
      <trkpt lat="50.1459" lon="3.68406">
        <ele>161.16</ele>
        <time>2015-05-17T15:33:02Z</time>
      </trkpt>
      <trkpt lat="50.1459" lon="3.68405">
        <ele>161.16</ele>
        <time>2015-05-17T15:33:03Z</time>
      </trkpt>
      <trkpt lat="50.14589" lon="3.68403">
        <ele>161.16</ele>
        <time>2015-05-17T15:33:04Z</time>
      </trkpt>
      <trkpt lat="50.14586" lon="3.68399">
        <ele>161.16</ele>
        <time>2015-05-17T15:33:09Z</time>
      </trkpt>
      <trkpt lat="50.14585" lon="3.68397">
        <ele>161.16</ele>
        <time>2015-05-17T15:33:10Z</time>
      </trkpt>
      <trkpt lat="50.14584" lon="3.68395">
        <ele>161.16</ele>
        <time>2015-05-17T15:33:11Z</time>
      </trkpt>
      <trkpt lat="50.14584" lon="3.68394">
        <ele>161.16</ele>
        <time>2015-05-17T15:33:12Z</time>
      </trkpt>
      <trkpt lat="50.14583" lon="3.68392">
        <ele>161.64</ele>
        <time>2015-05-17T15:33:13Z</time>
      </trkpt>
      <trkpt lat="50.14582" lon="3.68387">
        <ele>161.64</ele>
        <time>2015-05-17T15:33:25Z</time>
      </trkpt>
      <trkpt lat="50.14582" lon="3.68384">
        <ele>161.64</ele>
        <time>2015-05-17T15:33:38Z</time>
      </trkpt>
      <trkpt lat="50.14577" lon="3.68382">
        <ele>161.64</ele>
        <time>2015-05-17T15:33:45Z</time>
      </trkpt>
      <trkpt lat="50.14576" lon="3.6838">
        <ele>162.12</ele>
        <time>2015-05-17T15:33:46Z</time>
      </trkpt>
      <trkpt lat="50.14575" lon="3.68377">
        <ele>162.12</ele>
        <time>2015-05-17T15:33:47Z</time>
      </trkpt>
      <trkpt lat="50.14572" lon="3.68368">
        <ele>162.12</ele>
        <time>2015-05-17T15:33:52Z</time>
      </trkpt>
      <trkpt lat="50.14571" lon="3.68366">
        <ele>162.12</ele>
        <time>2015-05-17T15:33:53Z</time>
      </trkpt>
      <trkpt lat="50.14559" lon="3.68341">
        <ele>162.6</ele>
        <time>2015-05-17T15:34:05Z</time>
      </trkpt>
      <trkpt lat="50.14558" lon="3.68339">
        <ele>162.6</ele>
        <time>2015-05-17T15:34:06Z</time>
      </trkpt>
      <trkpt lat="50.14557" lon="3.68337">
        <ele>162.6</ele>
        <time>2015-05-17T15:34:07Z</time>
      </trkpt>
      <trkpt lat="50.14556" lon="3.68335">
        <ele>162.6</ele>
        <time>2015-05-17T15:34:08Z</time>
      </trkpt>
      <trkpt lat="50.14555" lon="3.68334">
        <ele>162.6</ele>
        <time>2015-05-17T15:34:09Z</time>
      </trkpt>
      <trkpt lat="50.14554" lon="3.68332">
        <ele>162.6</ele>
        <time>2015-05-17T15:34:10Z</time>
      </trkpt>
      <trkpt lat="50.14553" lon="3.6833">
        <ele>162.6</ele>
        <time>2015-05-17T15:34:11Z</time>
      </trkpt>
      <trkpt lat="50.14552" lon="3.68328">
        <ele>162.6</ele>
        <time>2015-05-17T15:34:12Z</time>
      </trkpt>
      <trkpt lat="50.14551" lon="3.68326">
        <ele>162.6</ele>
        <time>2015-05-17T15:34:13Z</time>
      </trkpt>
      <trkpt lat="50.14551" lon="3.68323">
        <ele>162.6</ele>
        <time>2015-05-17T15:34:14Z</time>
      </trkpt>
      <trkpt lat="50.1455" lon="3.68321">
        <ele>162.6</ele>
        <time>2015-05-17T15:34:15Z</time>
      </trkpt>
      <trkpt lat="50.14531" lon="3.68278">
        <ele>163.56</ele>
        <time>2015-05-17T15:34:28Z</time>
      </trkpt>
      <trkpt lat="50.14516" lon="3.68246">
        <ele>165</ele>
        <time>2015-05-17T15:34:39Z</time>
      </trkpt>
      <trkpt lat="50.14503" lon="3.68211">
        <ele>165</ele>
        <time>2015-05-17T15:34:52Z</time>
      </trkpt>
      <trkpt lat="50.14485" lon="3.68173">
        <ele>165</ele>
        <time>2015-05-17T15:35:07Z</time>
      </trkpt>
      <trkpt lat="50.1447" lon="3.6814">
        <ele>165</ele>
        <time>2015-05-17T15:35:19Z</time>
      </trkpt>
      <trkpt lat="50.14454" lon="3.68101">
        <ele>165</ele>
        <time>2015-05-17T15:35:33Z</time>
      </trkpt>
      <trkpt lat="50.1444" lon="3.68071">
        <ele>165</ele>
        <time>2015-05-17T15:35:45Z</time>
      </trkpt>
      <trkpt lat="50.14427" lon="3.68043">
        <ele>164.04</ele>
        <time>2015-05-17T15:35:55Z</time>
      </trkpt>
      <trkpt lat="50.14423" lon="3.68028">
        <ele>164.04</ele>
        <time>2015-05-17T15:36:01Z</time>
      </trkpt>
      <trkpt lat="50.14423" lon="3.68025">
        <ele>164.04</ele>
        <time>2015-05-17T15:36:02Z</time>
      </trkpt>
      <trkpt lat="50.14424" lon="3.68023">
        <ele>164.04</ele>
        <time>2015-05-17T15:36:03Z</time>
      </trkpt>
      <trkpt lat="50.14424" lon="3.68021">
        <ele>164.04</ele>
        <time>2015-05-17T15:36:04Z</time>
      </trkpt>
      <trkpt lat="50.14424" lon="3.68017">
        <ele>164.04</ele>
        <time>2015-05-17T15:36:16Z</time>
      </trkpt>
      <trkpt lat="50.14422" lon="3.68027">
        <ele>164.04</ele>
        <time>2015-05-17T15:36:37Z</time>
      </trkpt>
      <trkpt lat="50.14421" lon="3.68027">
        <ele>164.04</ele>
        <time>2015-05-17T15:37:05Z</time>
      </trkpt>
      <trkpt lat="50.14423" lon="3.68019">
        <ele>164.04</ele>
        <time>2015-05-17T15:37:34Z</time>
      </trkpt>
      <trkpt lat="50.14423" lon="3.68019">
        <ele>165.48</ele>
        <time>2015-05-17T15:37:55Z</time>
      </trkpt>
      <trkpt lat="50.14418" lon="3.68016">
        <ele>165.48</ele>
        <time>2015-05-17T15:38:06Z</time>
      </trkpt>
      <trkpt lat="50.14417" lon="3.68015">
        <ele>165.48</ele>
        <time>2015-05-17T15:38:07Z</time>
      </trkpt>
      <trkpt lat="50.14416" lon="3.68013">
        <ele>165.48</ele>
        <time>2015-05-17T15:38:08Z</time>
      </trkpt>
      <trkpt lat="50.14397" lon="3.67974">
        <ele>165.48</ele>
        <time>2015-05-17T15:38:20Z</time>
      </trkpt>
      <trkpt lat="50.14372" lon="3.67917">
        <ele>165.48</ele>
        <time>2015-05-17T15:38:33Z</time>
      </trkpt>
      <trkpt lat="50.14348" lon="3.67864">
        <ele>164.52</ele>
        <time>2015-05-17T15:38:44Z</time>
      </trkpt>
      <trkpt lat="50.14342" lon="3.67852">
        <ele>163.56</ele>
        <time>2015-05-17T15:38:46Z</time>
      </trkpt>
      <trkpt lat="50.1434" lon="3.67846">
        <ele>163.56</ele>
        <time>2015-05-17T15:38:47Z</time>
      </trkpt>
      <trkpt lat="50.14316" lon="3.67794">
        <ele>161.16</ele>
        <time>2015-05-17T15:38:57Z</time>
      </trkpt>
      <trkpt lat="50.14313" lon="3.67789">
        <ele>161.64</ele>
        <time>2015-05-17T15:38:58Z</time>
      </trkpt>
      <trkpt lat="50.1431" lon="3.67783">
        <ele>161.16</ele>
        <time>2015-05-17T15:38:59Z</time>
      </trkpt>
      <trkpt lat="50.14289" lon="3.67735">
        <ele>161.16</ele>
        <time>2015-05-17T15:39:10Z</time>
      </trkpt>
      <trkpt lat="50.14268" lon="3.67683">
        <ele>159.72</ele>
        <time>2015-05-17T15:39:22Z</time>
      </trkpt>
      <trkpt lat="50.14249" lon="3.67648">
        <ele>159.24</ele>
        <time>2015-05-17T15:39:32Z</time>
      </trkpt>
      <trkpt lat="50.14247" lon="3.67648">
        <ele>159.24</ele>
        <time>2015-05-17T15:39:33Z</time>
      </trkpt>
      <trkpt lat="50.14244" lon="3.67649">
        <ele>158.27</ele>
        <time>2015-05-17T15:39:34Z</time>
      </trkpt>
      <trkpt lat="50.14242" lon="3.67651">
        <ele>158.27</ele>
        <time>2015-05-17T15:39:35Z</time>
      </trkpt>
      <trkpt lat="50.14241" lon="3.67654">
        <ele>158.27</ele>
        <time>2015-05-17T15:39:36Z</time>
      </trkpt>
      <trkpt lat="50.1424" lon="3.67657">
        <ele>158.27</ele>
        <time>2015-05-17T15:39:37Z</time>
      </trkpt>
      <trkpt lat="50.1424" lon="3.6766">
        <ele>157.79</ele>
        <time>2015-05-17T15:39:38Z</time>
      </trkpt>
      <trkpt lat="50.1424" lon="3.67662">
        <ele>157.79</ele>
        <time>2015-05-17T15:39:39Z</time>
      </trkpt>
      <trkpt lat="50.14238" lon="3.67686">
        <ele>157.79</ele>
        <time>2015-05-17T15:39:51Z</time>
      </trkpt>
      <trkpt lat="50.14239" lon="3.6771">
        <ele>157.79</ele>
        <time>2015-05-17T15:40:01Z</time>
      </trkpt>
      <trkpt lat="50.1424" lon="3.67714">
        <ele>157.79</ele>
        <time>2015-05-17T15:40:02Z</time>
      </trkpt>
      <trkpt lat="50.1424" lon="3.67716">
        <ele>159.24</ele>
        <time>2015-05-17T15:40:03Z</time>
      </trkpt>
      <trkpt lat="50.1424" lon="3.67719">
        <ele>159.24</ele>
        <time>2015-05-17T15:40:04Z</time>
      </trkpt>
      <trkpt lat="50.1424" lon="3.67721">
        <ele>159.24</ele>
        <time>2015-05-17T15:40:05Z</time>
      </trkpt>
      <trkpt lat="50.14239" lon="3.67723">
        <ele>159.24</ele>
        <time>2015-05-17T15:40:06Z</time>
      </trkpt>
      <trkpt lat="50.14239" lon="3.67725">
        <ele>159.24</ele>
        <time>2015-05-17T15:40:07Z</time>
      </trkpt>
      <trkpt lat="50.14238" lon="3.67727">
        <ele>159.24</ele>
        <time>2015-05-17T15:40:08Z</time>
      </trkpt>
      <trkpt lat="50.14238" lon="3.6773">
        <ele>159.24</ele>
        <time>2015-05-17T15:40:09Z</time>
      </trkpt>
      <trkpt lat="50.14239" lon="3.67733">
        <ele>159.24</ele>
        <time>2015-05-17T15:40:10Z</time>
      </trkpt>
      <trkpt lat="50.14239" lon="3.67735">
        <ele>159.24</ele>
        <time>2015-05-17T15:40:11Z</time>
      </trkpt>
      <trkpt lat="50.1424" lon="3.67737">
        <ele>159.24</ele>
        <time>2015-05-17T15:40:12Z</time>
      </trkpt>
      <trkpt lat="50.1424" lon="3.6774">
        <ele>159.24</ele>
        <time>2015-05-17T15:40:13Z</time>
      </trkpt>
      <trkpt lat="50.14239" lon="3.67742">
        <ele>159.24</ele>
        <time>2015-05-17T15:40:14Z</time>
      </trkpt>
      <trkpt lat="50.14239" lon="3.67745">
        <ele>159.24</ele>
        <time>2015-05-17T15:40:15Z</time>
      </trkpt>
      <trkpt lat="50.14239" lon="3.67748">
        <ele>159.24</ele>
        <time>2015-05-17T15:40:16Z</time>
      </trkpt>
      <trkpt lat="50.14238" lon="3.67751">
        <ele>159.24</ele>
        <time>2015-05-17T15:40:17Z</time>
      </trkpt>
      <trkpt lat="50.14238" lon="3.67756">
        <ele>159.24</ele>
        <time>2015-05-17T15:40:19Z</time>
      </trkpt>
      <trkpt lat="50.14239" lon="3.67759">
        <ele>159.24</ele>
        <time>2015-05-17T15:40:20Z</time>
      </trkpt>
      <trkpt lat="50.14245" lon="3.67776">
        <ele>159.72</ele>
        <time>2015-05-17T15:40:32Z</time>
      </trkpt>
      <trkpt lat="50.14248" lon="3.67789">
        <ele>159.72</ele>
        <time>2015-05-17T15:40:46Z</time>
      </trkpt>
      <trkpt lat="50.14249" lon="3.67804">
        <ele>159.72</ele>
        <time>2015-05-17T15:40:56Z</time>
      </trkpt>
      <trkpt lat="50.14251" lon="3.67823">
        <ele>160.2</ele>
        <time>2015-05-17T15:41:04Z</time>
      </trkpt>
      <trkpt lat="50.14251" lon="3.67826">
        <ele>160.2</ele>
        <time>2015-05-17T15:41:05Z</time>
      </trkpt>
      <trkpt lat="50.14249" lon="3.67834">
        <ele>160.68</ele>
        <time>2015-05-17T15:41:09Z</time>
      </trkpt>
      <trkpt lat="50.14249" lon="3.67837">
        <ele>160.68</ele>
        <time>2015-05-17T15:41:10Z</time>
      </trkpt>
      <trkpt lat="50.14251" lon="3.6787">
        <ele>161.64</ele>
        <time>2015-05-17T15:41:22Z</time>
      </trkpt>
      <trkpt lat="50.14251" lon="3.67873">
        <ele>161.64</ele>
        <time>2015-05-17T15:41:23Z</time>
      </trkpt>
      <trkpt lat="50.14252" lon="3.67875">
        <ele>161.64</ele>
        <time>2015-05-17T15:41:24Z</time>
      </trkpt>
      <trkpt lat="50.14252" lon="3.67878">
        <ele>161.64</ele>
        <time>2015-05-17T15:41:25Z</time>
      </trkpt>
      <trkpt lat="50.14252" lon="3.6788">
        <ele>161.64</ele>
        <time>2015-05-17T15:41:26Z</time>
      </trkpt>
      <trkpt lat="50.14253" lon="3.67887">
        <ele>161.64</ele>
        <time>2015-05-17T15:41:29Z</time>
      </trkpt>
      <trkpt lat="50.14253" lon="3.6789">
        <ele>161.64</ele>
        <time>2015-05-17T15:41:30Z</time>
      </trkpt>
      <trkpt lat="50.14255" lon="3.67929">
        <ele>162.12</ele>
        <time>2015-05-17T15:41:43Z</time>
      </trkpt>
      <trkpt lat="50.14255" lon="3.67932">
        <ele>162.12</ele>
        <time>2015-05-17T15:41:44Z</time>
      </trkpt>
      <trkpt lat="50.14255" lon="3.67935">
        <ele>162.12</ele>
        <time>2015-05-17T15:41:45Z</time>
      </trkpt>
      <trkpt lat="50.14255" lon="3.67939">
        <ele>162.12</ele>
        <time>2015-05-17T15:41:46Z</time>
      </trkpt>
      <trkpt lat="50.14255" lon="3.67942">
        <ele>162.12</ele>
        <time>2015-05-17T15:41:47Z</time>
      </trkpt>
      <trkpt lat="50.14255" lon="3.67945">
        <ele>162.12</ele>
        <time>2015-05-17T15:41:48Z</time>
      </trkpt>
      <trkpt lat="50.14256" lon="3.67948">
        <ele>162.6</ele>
        <time>2015-05-17T15:41:49Z</time>
      </trkpt>
      <trkpt lat="50.14256" lon="3.67961">
        <ele>163.08</ele>
        <time>2015-05-17T15:41:55Z</time>
      </trkpt>
      <trkpt lat="50.14257" lon="3.67964">
        <ele>163.08</ele>
        <time>2015-05-17T15:41:56Z</time>
      </trkpt>
      <trkpt lat="50.14257" lon="3.67966">
        <ele>163.08</ele>
        <time>2015-05-17T15:41:57Z</time>
      </trkpt>
      <trkpt lat="50.14257" lon="3.67969">
        <ele>163.08</ele>
        <time>2015-05-17T15:41:58Z</time>
      </trkpt>
      <trkpt lat="50.14257" lon="3.67972">
        <ele>163.08</ele>
        <time>2015-05-17T15:41:59Z</time>
      </trkpt>
      <trkpt lat="50.14257" lon="3.67974">
        <ele>163.08</ele>
        <time>2015-05-17T15:42:00Z</time>
      </trkpt>
      <trkpt lat="50.14257" lon="3.67977">
        <ele>163.08</ele>
        <time>2015-05-17T15:42:01Z</time>
      </trkpt>
      <trkpt lat="50.14257" lon="3.67979">
        <ele>163.08</ele>
        <time>2015-05-17T15:42:02Z</time>
      </trkpt>
      <trkpt lat="50.14257" lon="3.67982">
        <ele>163.08</ele>
        <time>2015-05-17T15:42:03Z</time>
      </trkpt>
      <trkpt lat="50.14257" lon="3.67984">
        <ele>163.08</ele>
        <time>2015-05-17T15:42:04Z</time>
      </trkpt>
      <trkpt lat="50.14256" lon="3.67987">
        <ele>163.08</ele>
        <time>2015-05-17T15:42:05Z</time>
      </trkpt>
      <trkpt lat="50.14256" lon="3.67989">
        <ele>163.08</ele>
        <time>2015-05-17T15:42:06Z</time>
      </trkpt>
      <trkpt lat="50.14257" lon="3.68022">
        <ele>163.08</ele>
        <time>2015-05-17T15:42:17Z</time>
      </trkpt>
      <trkpt lat="50.1426" lon="3.6803">
        <ele>163.56</ele>
        <time>2015-05-17T15:42:21Z</time>
      </trkpt>
      <trkpt lat="50.1426" lon="3.68033">
        <ele>163.56</ele>
        <time>2015-05-17T15:42:22Z</time>
      </trkpt>
      <trkpt lat="50.14263" lon="3.68059">
        <ele>163.56</ele>
        <time>2015-05-17T15:42:33Z</time>
      </trkpt>
      <trkpt lat="50.14263" lon="3.68061">
        <ele>163.56</ele>
        <time>2015-05-17T15:42:34Z</time>
      </trkpt>
      <trkpt lat="50.14265" lon="3.68091">
        <ele>164.04</ele>
        <time>2015-05-17T15:42:46Z</time>
      </trkpt>
      <trkpt lat="50.14266" lon="3.68126">
        <ele>164.04</ele>
        <time>2015-05-17T15:42:59Z</time>
      </trkpt>
      <trkpt lat="50.14267" lon="3.68137">
        <ele>164.04</ele>
        <time>2015-05-17T15:43:04Z</time>
      </trkpt>
      <trkpt lat="50.14268" lon="3.68179">
        <ele>164.04</ele>
        <time>2015-05-17T15:43:18Z</time>
      </trkpt>
      <trkpt lat="50.14271" lon="3.68211">
        <ele>164.52</ele>
        <time>2015-05-17T15:43:30Z</time>
      </trkpt>
      <trkpt lat="50.14273" lon="3.68218">
        <ele>165</ele>
        <time>2015-05-17T15:43:45Z</time>
      </trkpt>
      <trkpt lat="50.14271" lon="3.6822">
        <ele>165</ele>
        <time>2015-05-17T15:44:21Z</time>
      </trkpt>
      <trkpt lat="50.14272" lon="3.6823">
        <ele>165</ele>
        <time>2015-05-17T15:44:48Z</time>
      </trkpt>
      <trkpt lat="50.14272" lon="3.68235">
        <ele>165.48</ele>
        <time>2015-05-17T15:44:55Z</time>
      </trkpt>
      <trkpt lat="50.14272" lon="3.68237">
        <ele>165.48</ele>
        <time>2015-05-17T15:44:56Z</time>
      </trkpt>
      <trkpt lat="50.14273" lon="3.68239">
        <ele>165.48</ele>
        <time>2015-05-17T15:44:57Z</time>
      </trkpt>
      <trkpt lat="50.14274" lon="3.68241">
        <ele>165.48</ele>
        <time>2015-05-17T15:44:58Z</time>
      </trkpt>
      <trkpt lat="50.14274" lon="3.68245">
        <ele>165.48</ele>
        <time>2015-05-17T15:44:59Z</time>
      </trkpt>
      <trkpt lat="50.14274" lon="3.68249">
        <ele>165.48</ele>
        <time>2015-05-17T15:45:00Z</time>
      </trkpt>
      <trkpt lat="50.14274" lon="3.68252">
        <ele>165.48</ele>
        <time>2015-05-17T15:45:01Z</time>
      </trkpt>
      <trkpt lat="50.14279" lon="3.6829">
        <ele>165.96</ele>
        <time>2015-05-17T15:45:13Z</time>
      </trkpt>
      <trkpt lat="50.1428" lon="3.68327">
        <ele>166.93</ele>
        <time>2015-05-17T15:45:26Z</time>
      </trkpt>
      <trkpt lat="50.14281" lon="3.68337">
        <ele>166.93</ele>
        <time>2015-05-17T15:45:30Z</time>
      </trkpt>
      <trkpt lat="50.14281" lon="3.6834">
        <ele>166.93</ele>
        <time>2015-05-17T15:45:31Z</time>
      </trkpt>
      <trkpt lat="50.14282" lon="3.6838">
        <ele>167.41</ele>
        <time>2015-05-17T15:45:45Z</time>
      </trkpt>
      <trkpt lat="50.14282" lon="3.68385">
        <ele>167.41</ele>
        <time>2015-05-17T15:45:47Z</time>
      </trkpt>
      <trkpt lat="50.14282" lon="3.68388">
        <ele>167.41</ele>
        <time>2015-05-17T15:45:48Z</time>
      </trkpt>
      <trkpt lat="50.14283" lon="3.68391">
        <ele>167.41</ele>
        <time>2015-05-17T15:45:49Z</time>
      </trkpt>
      <trkpt lat="50.14285" lon="3.68412">
        <ele>167.89</ele>
        <time>2015-05-17T15:46:01Z</time>
      </trkpt>
      <trkpt lat="50.14285" lon="3.6842">
        <ele>167.89</ele>
        <time>2015-05-17T15:46:15Z</time>
      </trkpt>
      <trkpt lat="50.14283" lon="3.68419">
        <ele>167.89</ele>
        <time>2015-05-17T15:46:28Z</time>
      </trkpt>
      <trkpt lat="50.14283" lon="3.68431">
        <ele>167.89</ele>
        <time>2015-05-17T15:46:37Z</time>
      </trkpt>
      <trkpt lat="50.14284" lon="3.68435">
        <ele>167.89</ele>
        <time>2015-05-17T15:46:38Z</time>
      </trkpt>
      <trkpt lat="50.14285" lon="3.68439">
        <ele>167.89</ele>
        <time>2015-05-17T15:46:39Z</time>
      </trkpt>
      <trkpt lat="50.14292" lon="3.68473">
        <ele>167.89</ele>
        <time>2015-05-17T15:46:50Z</time>
      </trkpt>
      <trkpt lat="50.14293" lon="3.68478">
        <ele>167.89</ele>
        <time>2015-05-17T15:46:52Z</time>
      </trkpt>
      <trkpt lat="50.14294" lon="3.6848">
        <ele>167.89</ele>
        <time>2015-05-17T15:46:53Z</time>
      </trkpt>
      <trkpt lat="50.14297" lon="3.68491">
        <ele>167.89</ele>
        <time>2015-05-17T15:47:06Z</time>
      </trkpt>
      <trkpt lat="50.14308" lon="3.68508">
        <ele>167.89</ele>
        <time>2015-05-17T15:47:20Z</time>
      </trkpt>
      <trkpt lat="50.14316" lon="3.68541">
        <ele>166.93</ele>
        <time>2015-05-17T15:47:32Z</time>
      </trkpt>
      <trkpt lat="50.14315" lon="3.68544">
        <ele>166.93</ele>
        <time>2015-05-17T15:47:33Z</time>
      </trkpt>
      <trkpt lat="50.14315" lon="3.68548">
        <ele>166.93</ele>
        <time>2015-05-17T15:47:34Z</time>
      </trkpt>
      <trkpt lat="50.14316" lon="3.68551">
        <ele>166.93</ele>
        <time>2015-05-17T15:47:35Z</time>
      </trkpt>
      <trkpt lat="50.14316" lon="3.68554">
        <ele>166.93</ele>
        <time>2015-05-17T15:47:36Z</time>
      </trkpt>
      <trkpt lat="50.14316" lon="3.68558">
        <ele>166.45</ele>
        <time>2015-05-17T15:47:45Z</time>
      </trkpt>
      <trkpt lat="50.14317" lon="3.68561">
        <ele>166.45</ele>
        <time>2015-05-17T15:47:59Z</time>
      </trkpt>
      <trkpt lat="50.1432" lon="3.68568">
        <ele>166.93</ele>
        <time>2015-05-17T15:48:17Z</time>
      </trkpt>
      <trkpt lat="50.14319" lon="3.68571">
        <ele>166.93</ele>
        <time>2015-05-17T15:48:20Z</time>
      </trkpt>
      <trkpt lat="50.14317" lon="3.68578">
        <ele>166.45</ele>
        <time>2015-05-17T15:48:29Z</time>
      </trkpt>
      <trkpt lat="50.14319" lon="3.68584">
        <ele>166.45</ele>
        <time>2015-05-17T15:48:38Z</time>
      </trkpt>
      <trkpt lat="50.14319" lon="3.6859">
        <ele>166.45</ele>
        <time>2015-05-17T15:48:41Z</time>
      </trkpt>
      <trkpt lat="50.14319" lon="3.68592">
        <ele>166.45</ele>
        <time>2015-05-17T15:48:42Z</time>
      </trkpt>
      <trkpt lat="50.14317" lon="3.68607">
        <ele>166.45</ele>
        <time>2015-05-17T15:48:48Z</time>
      </trkpt>
      <trkpt lat="50.14317" lon="3.6861">
        <ele>166.45</ele>
        <time>2015-05-17T15:48:49Z</time>
      </trkpt>
      <trkpt lat="50.14318" lon="3.68612">
        <ele>165.96</ele>
        <time>2015-05-17T15:48:50Z</time>
      </trkpt>
      <trkpt lat="50.14318" lon="3.68616">
        <ele>165.96</ele>
        <time>2015-05-17T15:48:51Z</time>
      </trkpt>
      <trkpt lat="50.14318" lon="3.6862">
        <ele>165.96</ele>
        <time>2015-05-17T15:48:52Z</time>
      </trkpt>
      <trkpt lat="50.14318" lon="3.68623">
        <ele>165.48</ele>
        <time>2015-05-17T15:48:53Z</time>
      </trkpt>
      <trkpt lat="50.14319" lon="3.68627">
        <ele>165.48</ele>
        <time>2015-05-17T15:48:54Z</time>
      </trkpt>
      <trkpt lat="50.14319" lon="3.68631">
        <ele>165.48</ele>
        <time>2015-05-17T15:48:55Z</time>
      </trkpt>
      <trkpt lat="50.1432" lon="3.68649">
        <ele>164.04</ele>
        <time>2015-05-17T15:48:59Z</time>
      </trkpt>
      <trkpt lat="50.14319" lon="3.68654">
        <ele>163.56</ele>
        <time>2015-05-17T15:49:00Z</time>
      </trkpt>
      <trkpt lat="50.1432" lon="3.68678">
        <ele>162.12</ele>
        <time>2015-05-17T15:49:04Z</time>
      </trkpt>
      <trkpt lat="50.14321" lon="3.6872">
        <ele>162.12</ele>
        <time>2015-05-17T15:49:15Z</time>
      </trkpt>
      <trkpt lat="50.14321" lon="3.68722">
        <ele>162.12</ele>
        <time>2015-05-17T15:49:16Z</time>
      </trkpt>
      <trkpt lat="50.14322" lon="3.68726">
        <ele>162.12</ele>
        <time>2015-05-17T15:49:17Z</time>
      </trkpt>
      <trkpt lat="50.14322" lon="3.68731">
        <ele>162.12</ele>
        <time>2015-05-17T15:49:18Z</time>
      </trkpt>
      <trkpt lat="50.14322" lon="3.68735">
        <ele>162.12</ele>
        <time>2015-05-17T15:49:19Z</time>
      </trkpt>
      <trkpt lat="50.14323" lon="3.68738">
        <ele>162.12</ele>
        <time>2015-05-17T15:49:20Z</time>
      </trkpt>
      <trkpt lat="50.14322" lon="3.68742">
        <ele>161.64</ele>
        <time>2015-05-17T15:49:21Z</time>
      </trkpt>
      <trkpt lat="50.14322" lon="3.68745">
        <ele>161.64</ele>
        <time>2015-05-17T15:49:22Z</time>
      </trkpt>
      <trkpt lat="50.14321" lon="3.68766">
        <ele>161.64</ele>
        <time>2015-05-17T15:49:32Z</time>
      </trkpt>
      <trkpt lat="50.14322" lon="3.68778">
        <ele>161.64</ele>
        <time>2015-05-17T15:49:46Z</time>
      </trkpt>
      <trkpt lat="50.14322" lon="3.6879">
        <ele>161.64</ele>
        <time>2015-05-17T15:49:52Z</time>
      </trkpt>
      <trkpt lat="50.14322" lon="3.68803">
        <ele>163.08</ele>
        <time>2015-05-17T15:49:59Z</time>
      </trkpt>
      <trkpt lat="50.14322" lon="3.6881">
        <ele>163.56</ele>
        <time>2015-05-17T15:50:10Z</time>
      </trkpt>
      <trkpt lat="50.14321" lon="3.68814">
        <ele>163.56</ele>
        <time>2015-05-17T15:50:16Z</time>
      </trkpt>
      <trkpt lat="50.1432" lon="3.68825">
        <ele>164.04</ele>
        <time>2015-05-17T15:50:25Z</time>
      </trkpt>
      <trkpt lat="50.1432" lon="3.68828">
        <ele>164.04</ele>
        <time>2015-05-17T15:50:26Z</time>
      </trkpt>
      <trkpt lat="50.1432" lon="3.68853">
        <ele>165.48</ele>
        <time>2015-05-17T15:50:35Z</time>
      </trkpt>
      <trkpt lat="50.14317" lon="3.6888">
        <ele>166.93</ele>
        <time>2015-05-17T15:50:48Z</time>
      </trkpt>
      <trkpt lat="50.14309" lon="3.68898">
        <ele>167.89</ele>
        <time>2015-05-17T15:51:02Z</time>
      </trkpt>
      <trkpt lat="50.14299" lon="3.68925">
        <ele>168.37</ele>
        <time>2015-05-17T15:51:14Z</time>
      </trkpt>
      <trkpt lat="50.14295" lon="3.68933">
        <ele>168.37</ele>
        <time>2015-05-17T15:51:23Z</time>
      </trkpt>
      <trkpt lat="50.14294" lon="3.68943">
        <ele>168.85</ele>
        <time>2015-05-17T15:51:35Z</time>
      </trkpt>
      <trkpt lat="50.14296" lon="3.68957">
        <ele>168.85</ele>
        <time>2015-05-17T15:51:41Z</time>
      </trkpt>
      <trkpt lat="50.14298" lon="3.68966">
        <ele>169.33</ele>
        <time>2015-05-17T15:51:52Z</time>
      </trkpt>
      <trkpt lat="50.14297" lon="3.68967">
        <ele>169.33</ele>
        <time>2015-05-17T15:51:53Z</time>
      </trkpt>
      <trkpt lat="50.14293" lon="3.68976">
        <ele>169.81</ele>
        <time>2015-05-17T15:52:01Z</time>
      </trkpt>
      <trkpt lat="50.14291" lon="3.68974">
        <ele>169.81</ele>
        <time>2015-05-17T15:52:02Z</time>
      </trkpt>
      <trkpt lat="50.14289" lon="3.6897">
        <ele>169.81</ele>
        <time>2015-05-17T15:52:03Z</time>
      </trkpt>
      <trkpt lat="50.14264" lon="3.68941">
        <ele>167.89</ele>
        <time>2015-05-17T15:52:14Z</time>
      </trkpt>
      <trkpt lat="50.1424" lon="3.6893">
        <ele>167.89</ele>
        <time>2015-05-17T15:52:26Z</time>
      </trkpt>
      <trkpt lat="50.1421" lon="3.6891">
        <ele>167.89</ele>
        <time>2015-05-17T15:52:38Z</time>
      </trkpt>
      <trkpt lat="50.14183" lon="3.6889">
        <ele>167.89</ele>
        <time>2015-05-17T15:52:51Z</time>
      </trkpt>
      <trkpt lat="50.14157" lon="3.68867">
        <ele>168.85</ele>
        <time>2015-05-17T15:53:05Z</time>
      </trkpt>
      <trkpt lat="50.14128" lon="3.68845">
        <ele>169.33</ele>
        <time>2015-05-17T15:53:20Z</time>
      </trkpt>
      <trkpt lat="50.14103" lon="3.68826">
        <ele>169.81</ele>
        <time>2015-05-17T15:53:34Z</time>
      </trkpt>
      <trkpt lat="50.14077" lon="3.68809">
        <ele>170.77</ele>
        <time>2015-05-17T15:53:48Z</time>
      </trkpt>
      <trkpt lat="50.14042" lon="3.68786">
        <ele>170.77</ele>
        <time>2015-05-17T15:54:04Z</time>
      </trkpt>
      <trkpt lat="50.14007" lon="3.68764">
        <ele>169.33</ele>
        <time>2015-05-17T15:54:18Z</time>
      </trkpt>
      <trkpt lat="50.13984" lon="3.68748">
        <ele>168.85</ele>
        <time>2015-05-17T15:54:30Z</time>
      </trkpt>
      <trkpt lat="50.13964" lon="3.68746">
        <ele>168.37</ele>
        <time>2015-05-17T15:54:39Z</time>
      </trkpt>
      <trkpt lat="50.13963" lon="3.68749">
        <ele>168.37</ele>
        <time>2015-05-17T15:54:40Z</time>
      </trkpt>
      <trkpt lat="50.13962" lon="3.68752">
        <ele>168.37</ele>
        <time>2015-05-17T15:54:41Z</time>
      </trkpt>
      <trkpt lat="50.13961" lon="3.68756">
        <ele>168.37</ele>
        <time>2015-05-17T15:54:42Z</time>
      </trkpt>
      <trkpt lat="50.13961" lon="3.6876">
        <ele>168.37</ele>
        <time>2015-05-17T15:54:43Z</time>
      </trkpt>
      <trkpt lat="50.13956" lon="3.68805">
        <ele>168.37</ele>
        <time>2015-05-17T15:54:59Z</time>
      </trkpt>
      <trkpt lat="50.13953" lon="3.68852">
        <ele>168.37</ele>
        <time>2015-05-17T15:55:15Z</time>
      </trkpt>
      <trkpt lat="50.13953" lon="3.68855">
        <ele>168.37</ele>
        <time>2015-05-17T15:55:16Z</time>
      </trkpt>
      <trkpt lat="50.13953" lon="3.68857">
        <ele>168.37</ele>
        <time>2015-05-17T15:55:17Z</time>
      </trkpt>
      <trkpt lat="50.13953" lon="3.6886">
        <ele>168.37</ele>
        <time>2015-05-17T15:55:18Z</time>
      </trkpt>
      <trkpt lat="50.13953" lon="3.68863">
        <ele>168.37</ele>
        <time>2015-05-17T15:55:19Z</time>
      </trkpt>
      <trkpt lat="50.13953" lon="3.68866">
        <ele>168.37</ele>
        <time>2015-05-17T15:55:20Z</time>
      </trkpt>
      <trkpt lat="50.13953" lon="3.68868">
        <ele>168.37</ele>
        <time>2015-05-17T15:55:21Z</time>
      </trkpt>
      <trkpt lat="50.1395" lon="3.6891">
        <ele>168.37</ele>
        <time>2015-05-17T15:55:36Z</time>
      </trkpt>
      <trkpt lat="50.1395" lon="3.68912">
        <ele>168.37</ele>
        <time>2015-05-17T15:55:37Z</time>
      </trkpt>
      <trkpt lat="50.13949" lon="3.68915">
        <ele>168.37</ele>
        <time>2015-05-17T15:55:38Z</time>
      </trkpt>
      <trkpt lat="50.13949" lon="3.68918">
        <ele>168.37</ele>
        <time>2015-05-17T15:55:39Z</time>
      </trkpt>
      <trkpt lat="50.13949" lon="3.6892">
        <ele>168.37</ele>
        <time>2015-05-17T15:55:40Z</time>
      </trkpt>
      <trkpt lat="50.13949" lon="3.68923">
        <ele>168.37</ele>
        <time>2015-05-17T15:55:41Z</time>
      </trkpt>
      <trkpt lat="50.13949" lon="3.68925">
        <ele>168.37</ele>
        <time>2015-05-17T15:55:42Z</time>
      </trkpt>
      <trkpt lat="50.13948" lon="3.68928">
        <ele>168.37</ele>
        <time>2015-05-17T15:55:43Z</time>
      </trkpt>
      <trkpt lat="50.13947" lon="3.68934">
        <ele>168.37</ele>
        <time>2015-05-17T15:55:45Z</time>
      </trkpt>
      <trkpt lat="50.13947" lon="3.68937">
        <ele>168.37</ele>
        <time>2015-05-17T15:55:46Z</time>
      </trkpt>
      <trkpt lat="50.13947" lon="3.68941">
        <ele>168.37</ele>
        <time>2015-05-17T15:55:47Z</time>
      </trkpt>
      <trkpt lat="50.13946" lon="3.68944">
        <ele>168.37</ele>
        <time>2015-05-17T15:55:48Z</time>
      </trkpt>
      <trkpt lat="50.13946" lon="3.68947">
        <ele>168.37</ele>
        <time>2015-05-17T15:55:49Z</time>
      </trkpt>
      <trkpt lat="50.13946" lon="3.6895">
        <ele>168.37</ele>
        <time>2015-05-17T15:55:50Z</time>
      </trkpt>
      <trkpt lat="50.13945" lon="3.68953">
        <ele>168.37</ele>
        <time>2015-05-17T15:55:51Z</time>
      </trkpt>
      <trkpt lat="50.13942" lon="3.69024">
        <ele>166.93</ele>
        <time>2015-05-17T15:56:08Z</time>
      </trkpt>
      <trkpt lat="50.1393" lon="3.69105">
        <ele>165</ele>
        <time>2015-05-17T15:56:21Z</time>
      </trkpt>
      <trkpt lat="50.13929" lon="3.69112">
        <ele>164.52</ele>
        <time>2015-05-17T15:56:22Z</time>
      </trkpt>
      <trkpt lat="50.13935" lon="3.69202">
        <ele>163.56</ele>
        <time>2015-05-17T15:56:38Z</time>
      </trkpt>
      <trkpt lat="50.13932" lon="3.69259">
        <ele>164.04</ele>
        <time>2015-05-17T15:56:51Z</time>
      </trkpt>
      <trkpt lat="50.13919" lon="3.69317">
        <ele>165</ele>
        <time>2015-05-17T15:57:07Z</time>
      </trkpt>
      <trkpt lat="50.13914" lon="3.6934">
        <ele>163.56</ele>
        <time>2015-05-17T15:57:12Z</time>
      </trkpt>
      <trkpt lat="50.13911" lon="3.69373">
        <ele>163.08</ele>
        <time>2015-05-17T15:57:19Z</time>
      </trkpt>
      <trkpt lat="50.13911" lon="3.69377">
        <ele>163.08</ele>
        <time>2015-05-17T15:57:20Z</time>
      </trkpt>
      <trkpt lat="50.1391" lon="3.69381">
        <ele>163.08</ele>
        <time>2015-05-17T15:57:21Z</time>
      </trkpt>
      <trkpt lat="50.1391" lon="3.69385">
        <ele>163.08</ele>
        <time>2015-05-17T15:57:22Z</time>
      </trkpt>
      <trkpt lat="50.1391" lon="3.6939">
        <ele>162.6</ele>
        <time>2015-05-17T15:57:23Z</time>
      </trkpt>
      <trkpt lat="50.13905" lon="3.69438">
        <ele>161.64</ele>
        <time>2015-05-17T15:57:31Z</time>
      </trkpt>
      <trkpt lat="50.13903" lon="3.69451">
        <ele>161.64</ele>
        <time>2015-05-17T15:57:33Z</time>
      </trkpt>
      <trkpt lat="50.13895" lon="3.69522">
        <ele>161.16</ele>
        <time>2015-05-17T15:57:46Z</time>
      </trkpt>
      <trkpt lat="50.13884" lon="3.69585">
        <ele>160.68</ele>
        <time>2015-05-17T15:57:59Z</time>
      </trkpt>
      <trkpt lat="50.1388" lon="3.69606">
        <ele>160.68</ele>
        <time>2015-05-17T15:58:03Z</time>
      </trkpt>
      <trkpt lat="50.1387" lon="3.69687">
        <ele>159.72</ele>
        <time>2015-05-17T15:58:18Z</time>
      </trkpt>
      <trkpt lat="50.13867" lon="3.69756">
        <ele>159.24</ele>
        <time>2015-05-17T15:58:32Z</time>
      </trkpt>
      <trkpt lat="50.13865" lon="3.698">
        <ele>158.27</ele>
        <time>2015-05-17T15:58:39Z</time>
      </trkpt>
      <trkpt lat="50.13865" lon="3.69814">
        <ele>157.79</ele>
        <time>2015-05-17T15:58:41Z</time>
      </trkpt>
      <trkpt lat="50.13861" lon="3.69853">
        <ele>157.31</ele>
        <time>2015-05-17T15:58:47Z</time>
      </trkpt>
      <trkpt lat="50.1386" lon="3.69872">
        <ele>156.83</ele>
        <time>2015-05-17T15:58:50Z</time>
      </trkpt>
      <trkpt lat="50.13851" lon="3.6991">
        <ele>155.87</ele>
        <time>2015-05-17T15:58:57Z</time>
      </trkpt>
      <trkpt lat="50.1385" lon="3.69917">
        <ele>155.87</ele>
        <time>2015-05-17T15:58:58Z</time>
      </trkpt>
      <trkpt lat="50.13849" lon="3.69924">
        <ele>155.87</ele>
        <time>2015-05-17T15:58:59Z</time>
      </trkpt>
      <trkpt lat="50.13848" lon="3.69931">
        <ele>154.91</ele>
        <time>2015-05-17T15:59:00Z</time>
      </trkpt>
      <trkpt lat="50.13847" lon="3.69939">
        <ele>154.43</ele>
        <time>2015-05-17T15:59:01Z</time>
      </trkpt>
      <trkpt lat="50.13834" lon="3.70048">
        <ele>151.54</ele>
        <time>2015-05-17T15:59:15Z</time>
      </trkpt>
      <trkpt lat="50.13833" lon="3.70085">
        <ele>151.06</ele>
        <time>2015-05-17T15:59:21Z</time>
      </trkpt>
      <trkpt lat="50.13849" lon="3.70139">
        <ele>149.62</ele>
        <time>2015-05-17T15:59:31Z</time>
      </trkpt>
      <trkpt lat="50.13851" lon="3.70142">
        <ele>149.62</ele>
        <time>2015-05-17T15:59:32Z</time>
      </trkpt>
      <trkpt lat="50.13851" lon="3.70146">
        <ele>149.62</ele>
        <time>2015-05-17T15:59:33Z</time>
      </trkpt>
      <trkpt lat="50.13851" lon="3.7015">
        <ele>149.62</ele>
        <time>2015-05-17T15:59:34Z</time>
      </trkpt>
      <trkpt lat="50.1385" lon="3.70154">
        <ele>149.62</ele>
        <time>2015-05-17T15:59:35Z</time>
      </trkpt>
      <trkpt lat="50.13829" lon="3.70221">
        <ele>147.22</ele>
        <time>2015-05-17T15:59:46Z</time>
      </trkpt>
      <trkpt lat="50.13827" lon="3.70227">
        <ele>146.26</ele>
        <time>2015-05-17T15:59:47Z</time>
      </trkpt>
      <trkpt lat="50.13794" lon="3.70318">
        <ele>144.82</ele>
        <time>2015-05-17T16:00:04Z</time>
      </trkpt>
      <trkpt lat="50.13788" lon="3.70324">
        <ele>144.82</ele>
        <time>2015-05-17T16:00:06Z</time>
      </trkpt>
      <trkpt lat="50.1378" lon="3.7033">
        <ele>144.34</ele>
        <time>2015-05-17T16:00:08Z</time>
      </trkpt>
      <trkpt lat="50.13776" lon="3.70334">
        <ele>143.85</ele>
        <time>2015-05-17T16:00:09Z</time>
      </trkpt>
      <trkpt lat="50.13773" lon="3.70339">
        <ele>143.85</ele>
        <time>2015-05-17T16:00:10Z</time>
      </trkpt>
      <trkpt lat="50.13756" lon="3.70365">
        <ele>142.41</ele>
        <time>2015-05-17T16:00:15Z</time>
      </trkpt>
      <trkpt lat="50.13753" lon="3.7037">
        <ele>142.41</ele>
        <time>2015-05-17T16:00:16Z</time>
      </trkpt>
      <trkpt lat="50.13721" lon="3.70432">
        <ele>141.93</ele>
        <time>2015-05-17T16:00:31Z</time>
      </trkpt>
      <trkpt lat="50.13722" lon="3.70474">
        <ele>141.93</ele>
        <time>2015-05-17T16:00:41Z</time>
      </trkpt>
      <trkpt lat="50.13728" lon="3.70536">
        <ele>141.45</ele>
        <time>2015-05-17T16:00:57Z</time>
      </trkpt>
      <trkpt lat="50.1373" lon="3.70565">
        <ele>142.89</ele>
        <time>2015-05-17T16:01:05Z</time>
      </trkpt>
      <trkpt lat="50.13736" lon="3.70603">
        <ele>143.37</ele>
        <time>2015-05-17T16:01:18Z</time>
      </trkpt>
      <trkpt lat="50.13751" lon="3.70646">
        <ele>143.37</ele>
        <time>2015-05-17T16:01:33Z</time>
      </trkpt>
      <trkpt lat="50.13767" lon="3.70678">
        <ele>143.37</ele>
        <time>2015-05-17T16:01:46Z</time>
      </trkpt>
      <trkpt lat="50.13781" lon="3.70708">
        <ele>143.37</ele>
        <time>2015-05-17T16:01:59Z</time>
      </trkpt>
      <trkpt lat="50.13792" lon="3.70736">
        <ele>143.37</ele>
        <time>2015-05-17T16:02:10Z</time>
      </trkpt>
      <trkpt lat="50.13796" lon="3.70774">
        <ele>144.34</ele>
        <time>2015-05-17T16:02:22Z</time>
      </trkpt>
      <trkpt lat="50.13789" lon="3.70836">
        <ele>144.34</ele>
        <time>2015-05-17T16:02:38Z</time>
      </trkpt>
      <trkpt lat="50.13791" lon="3.70861">
        <ele>144.34</ele>
        <time>2015-05-17T16:02:46Z</time>
      </trkpt>
      <trkpt lat="50.13802" lon="3.70904">
        <ele>144.34</ele>
        <time>2015-05-17T16:02:59Z</time>
      </trkpt>
      <trkpt lat="50.13809" lon="3.70922">
        <ele>142.89</ele>
        <time>2015-05-17T16:03:04Z</time>
      </trkpt>
      <trkpt lat="50.13837" lon="3.70988">
        <ele>140.01</ele>
        <time>2015-05-17T16:03:16Z</time>
      </trkpt>
      <trkpt lat="50.13843" lon="3.71002">
        <ele>139.05</ele>
        <time>2015-05-17T16:03:18Z</time>
      </trkpt>
      <trkpt lat="50.13852" lon="3.71032">
        <ele>138.09</ele>
        <time>2015-05-17T16:03:22Z</time>
      </trkpt>
      <trkpt lat="50.13893" lon="3.71115">
        <ele>136.64</ele>
        <time>2015-05-17T16:03:36Z</time>
      </trkpt>
      <trkpt lat="50.13917" lon="3.71167">
        <ele>136.16</ele>
        <time>2015-05-17T16:03:50Z</time>
      </trkpt>
      <trkpt lat="50.13916" lon="3.71171">
        <ele>135.68</ele>
        <time>2015-05-17T16:03:51Z</time>
      </trkpt>
      <trkpt lat="50.13914" lon="3.71174">
        <ele>135.68</ele>
        <time>2015-05-17T16:03:52Z</time>
      </trkpt>
      <trkpt lat="50.13913" lon="3.71178">
        <ele>135.68</ele>
        <time>2015-05-17T16:03:53Z</time>
      </trkpt>
      <trkpt lat="50.13911" lon="3.71181">
        <ele>135.2</ele>
        <time>2015-05-17T16:03:54Z</time>
      </trkpt>
      <trkpt lat="50.1391" lon="3.71184">
        <ele>135.2</ele>
        <time>2015-05-17T16:03:55Z</time>
      </trkpt>
      <trkpt lat="50.13908" lon="3.71187">
        <ele>135.2</ele>
        <time>2015-05-17T16:03:56Z</time>
      </trkpt>
      <trkpt lat="50.13906" lon="3.7119">
        <ele>135.2</ele>
        <time>2015-05-17T16:03:57Z</time>
      </trkpt>
      <trkpt lat="50.13886" lon="3.71229">
        <ele>135.2</ele>
        <time>2015-05-17T16:04:11Z</time>
      </trkpt>
      <trkpt lat="50.13866" lon="3.71272">
        <ele>135.2</ele>
        <time>2015-05-17T16:04:27Z</time>
      </trkpt>
      <trkpt lat="50.13845" lon="3.71326">
        <ele>135.2</ele>
        <time>2015-05-17T16:04:44Z</time>
      </trkpt>
      <trkpt lat="50.13829" lon="3.71378">
        <ele>134.72</ele>
        <time>2015-05-17T16:05:00Z</time>
      </trkpt>
      <trkpt lat="50.13826" lon="3.71395">
        <ele>134.72</ele>
        <time>2015-05-17T16:05:05Z</time>
      </trkpt>
      <trkpt lat="50.13825" lon="3.714">
        <ele>134.72</ele>
        <time>2015-05-17T16:05:11Z</time>
      </trkpt>
      <trkpt lat="50.13822" lon="3.71411">
        <ele>134.72</ele>
        <time>2015-05-17T16:05:23Z</time>
      </trkpt>
      <trkpt lat="50.13822" lon="3.71414">
        <ele>134.72</ele>
        <time>2015-05-17T16:05:24Z</time>
      </trkpt>
      <trkpt lat="50.13813" lon="3.71457">
        <ele>134.72</ele>
        <time>2015-05-17T16:05:36Z</time>
      </trkpt>
      <trkpt lat="50.13807" lon="3.71486">
        <ele>134.24</ele>
        <time>2015-05-17T16:05:48Z</time>
      </trkpt>
      <trkpt lat="50.13804" lon="3.715">
        <ele>134.24</ele>
        <time>2015-05-17T16:05:55Z</time>
      </trkpt>
      <trkpt lat="50.13803" lon="3.71503">
        <ele>133.76</ele>
        <time>2015-05-17T16:05:56Z</time>
      </trkpt>
      <trkpt lat="50.13802" lon="3.71506">
        <ele>133.76</ele>
        <time>2015-05-17T16:05:57Z</time>
      </trkpt>
      <trkpt lat="50.13791" lon="3.71554">
        <ele>133.76</ele>
        <time>2015-05-17T16:06:12Z</time>
      </trkpt>
      <trkpt lat="50.13786" lon="3.71592">
        <ele>133.76</ele>
        <time>2015-05-17T16:06:24Z</time>
      </trkpt>
      <trkpt lat="50.13784" lon="3.71612">
        <ele>133.76</ele>
        <time>2015-05-17T16:06:30Z</time>
      </trkpt>
      <trkpt lat="50.13783" lon="3.71615">
        <ele>133.76</ele>
        <time>2015-05-17T16:06:31Z</time>
      </trkpt>
      <trkpt lat="50.13783" lon="3.71618">
        <ele>133.76</ele>
        <time>2015-05-17T16:06:32Z</time>
      </trkpt>
      <trkpt lat="50.13783" lon="3.71621">
        <ele>133.76</ele>
        <time>2015-05-17T16:06:33Z</time>
      </trkpt>
      <trkpt lat="50.13782" lon="3.71624">
        <ele>133.76</ele>
        <time>2015-05-17T16:06:34Z</time>
      </trkpt>
      <trkpt lat="50.13782" lon="3.71627">
        <ele>133.76</ele>
        <time>2015-05-17T16:06:35Z</time>
      </trkpt>
      <trkpt lat="50.13772" lon="3.71677">
        <ele>133.76</ele>
        <time>2015-05-17T16:06:50Z</time>
      </trkpt>
      <trkpt lat="50.1377" lon="3.71688">
        <ele>133.76</ele>
        <time>2015-05-17T16:06:54Z</time>
      </trkpt>
      <trkpt lat="50.1377" lon="3.7169">
        <ele>133.76</ele>
        <time>2015-05-17T16:06:55Z</time>
      </trkpt>
      <trkpt lat="50.1377" lon="3.71692">
        <ele>133.76</ele>
        <time>2015-05-17T16:06:56Z</time>
      </trkpt>
      <trkpt lat="50.13769" lon="3.71694">
        <ele>133.76</ele>
        <time>2015-05-17T16:06:57Z</time>
      </trkpt>
      <trkpt lat="50.13768" lon="3.71695">
        <ele>133.76</ele>
        <time>2015-05-17T16:06:58Z</time>
      </trkpt>
      <trkpt lat="50.13767" lon="3.71697">
        <ele>133.76</ele>
        <time>2015-05-17T16:06:59Z</time>
      </trkpt>
      <trkpt lat="50.13765" lon="3.71699">
        <ele>133.76</ele>
        <time>2015-05-17T16:07:00Z</time>
      </trkpt>
      <trkpt lat="50.13764" lon="3.717">
        <ele>133.76</ele>
        <time>2015-05-17T16:07:01Z</time>
      </trkpt>
      <trkpt lat="50.13755" lon="3.71712">
        <ele>133.76</ele>
        <time>2015-05-17T16:07:14Z</time>
      </trkpt>
      <trkpt lat="50.13756" lon="3.71716">
        <ele>133.76</ele>
        <time>2015-05-17T16:07:29Z</time>
      </trkpt>
      <trkpt lat="50.13756" lon="3.71716">
        <ele>133.76</ele>
        <time>2015-05-17T16:08:01Z</time>
      </trkpt>
      <trkpt lat="50.13756" lon="3.71719">
        <ele>133.28</ele>
        <time>2015-05-17T16:08:38Z</time>
      </trkpt>
      <trkpt lat="50.13757" lon="3.71722">
        <ele>133.28</ele>
        <time>2015-05-17T16:09:12Z</time>
      </trkpt>
      <trkpt lat="50.13758" lon="3.71721">
        <ele>133.28</ele>
        <time>2015-05-17T16:09:42Z</time>
      </trkpt>
      <trkpt lat="50.13751" lon="3.71724">
        <ele>134.24</ele>
        <time>2015-05-17T16:10:04Z</time>
      </trkpt>
      <trkpt lat="50.1375" lon="3.71725">
        <ele>134.72</ele>
        <time>2015-05-17T16:10:16Z</time>
      </trkpt>
      <trkpt lat="50.13749" lon="3.71726">
        <ele>134.72</ele>
        <time>2015-05-17T16:10:17Z</time>
      </trkpt>
      <trkpt lat="50.13732" lon="3.71767">
        <ele>134.72</ele>
        <time>2015-05-17T16:10:30Z</time>
      </trkpt>
      <trkpt lat="50.1371" lon="3.71806">
        <ele>134.72</ele>
        <time>2015-05-17T16:10:45Z</time>
      </trkpt>
      <trkpt lat="50.13689" lon="3.71841">
        <ele>134.72</ele>
        <time>2015-05-17T16:10:59Z</time>
      </trkpt>
      <trkpt lat="50.13676" lon="3.71865">
        <ele>134.72</ele>
        <time>2015-05-17T16:11:08Z</time>
      </trkpt>
      <trkpt lat="50.13674" lon="3.71867">
        <ele>134.72</ele>
        <time>2015-05-17T16:11:09Z</time>
      </trkpt>
      <trkpt lat="50.13673" lon="3.71869">
        <ele>134.72</ele>
        <time>2015-05-17T16:11:10Z</time>
      </trkpt>
      <trkpt lat="50.13672" lon="3.71872">
        <ele>134.72</ele>
        <time>2015-05-17T16:11:11Z</time>
      </trkpt>
      <trkpt lat="50.1367" lon="3.71874">
        <ele>134.72</ele>
        <time>2015-05-17T16:11:12Z</time>
      </trkpt>
      <trkpt lat="50.13643" lon="3.71921">
        <ele>134.72</ele>
        <time>2015-05-17T16:11:30Z</time>
      </trkpt>
      <trkpt lat="50.13625" lon="3.71957">
        <ele>135.2</ele>
        <time>2015-05-17T16:11:42Z</time>
      </trkpt>
      <trkpt lat="50.13595" lon="3.7199">
        <ele>135.2</ele>
        <time>2015-05-17T16:12:00Z</time>
      </trkpt>
      <trkpt lat="50.13564" lon="3.72001">
        <ele>135.2</ele>
        <time>2015-05-17T16:12:14Z</time>
      </trkpt>
      <trkpt lat="50.13532" lon="3.71991">
        <ele>135.2</ele>
        <time>2015-05-17T16:12:30Z</time>
      </trkpt>
      <trkpt lat="50.13498" lon="3.71967">
        <ele>135.2</ele>
        <time>2015-05-17T16:12:46Z</time>
      </trkpt>
      <trkpt lat="50.13475" lon="3.71924">
        <ele>135.2</ele>
        <time>2015-05-17T16:13:02Z</time>
      </trkpt>
      <trkpt lat="50.13472" lon="3.71885">
        <ele>135.2</ele>
        <time>2015-05-17T16:13:15Z</time>
      </trkpt>
      <trkpt lat="50.13472" lon="3.71882">
        <ele>135.2</ele>
        <time>2015-05-17T16:13:27Z</time>
      </trkpt>
      <trkpt lat="50.13468" lon="3.71856">
        <ele>135.2</ele>
        <time>2015-05-17T16:13:40Z</time>
      </trkpt>
      <trkpt lat="50.13464" lon="3.71827">
        <ele>135.2</ele>
        <time>2015-05-17T16:13:57Z</time>
      </trkpt>
      <trkpt lat="50.1346" lon="3.7181">
        <ele>135.2</ele>
        <time>2015-05-17T16:14:11Z</time>
      </trkpt>
      <trkpt lat="50.13455" lon="3.7179">
        <ele>135.2</ele>
        <time>2015-05-17T16:14:24Z</time>
      </trkpt>
      <trkpt lat="50.13454" lon="3.71788">
        <ele>135.2</ele>
        <time>2015-05-17T16:14:26Z</time>
      </trkpt>
      <trkpt lat="50.13441" lon="3.71753">
        <ele>135.2</ele>
        <time>2015-05-17T16:14:40Z</time>
      </trkpt>
      <trkpt lat="50.13422" lon="3.71719">
        <ele>135.2</ele>
        <time>2015-05-17T16:14:53Z</time>
      </trkpt>
      <trkpt lat="50.13398" lon="3.71684">
        <ele>135.2</ele>
        <time>2015-05-17T16:15:07Z</time>
      </trkpt>
      <trkpt lat="50.1338" lon="3.71653">
        <ele>135.2</ele>
        <time>2015-05-17T16:15:22Z</time>
      </trkpt>
      <trkpt lat="50.13381" lon="3.71639">
        <ele>135.2</ele>
        <time>2015-05-17T16:15:35Z</time>
      </trkpt>
      <trkpt lat="50.13377" lon="3.7163">
        <ele>135.2</ele>
        <time>2015-05-17T16:15:50Z</time>
      </trkpt>
      <trkpt lat="50.13373" lon="3.71621">
        <ele>135.2</ele>
        <time>2015-05-17T16:16:04Z</time>
      </trkpt>
      <trkpt lat="50.13366" lon="3.71604">
        <ele>134.24</ele>
        <time>2015-05-17T16:16:19Z</time>
      </trkpt>
      <trkpt lat="50.1336" lon="3.71588">
        <ele>134.24</ele>
        <time>2015-05-17T16:16:33Z</time>
      </trkpt>
      <trkpt lat="50.13353" lon="3.71567">
        <ele>134.24</ele>
        <time>2015-05-17T16:16:47Z</time>
      </trkpt>
      <trkpt lat="50.13345" lon="3.71548">
        <ele>134.24</ele>
        <time>2015-05-17T16:17:00Z</time>
      </trkpt>
      <trkpt lat="50.13347" lon="3.71519">
        <ele>134.24</ele>
        <time>2015-05-17T16:17:13Z</time>
      </trkpt>
      <trkpt lat="50.13358" lon="3.71488">
        <ele>134.24</ele>
        <time>2015-05-17T16:17:26Z</time>
      </trkpt>
      <trkpt lat="50.13365" lon="3.71434">
        <ele>134.24</ele>
        <time>2015-05-17T16:17:41Z</time>
      </trkpt>
      <trkpt lat="50.13376" lon="3.71395">
        <ele>134.24</ele>
        <time>2015-05-17T16:17:53Z</time>
      </trkpt>
      <trkpt lat="50.13399" lon="3.71352">
        <ele>134.24</ele>
        <time>2015-05-17T16:18:07Z</time>
      </trkpt>
      <trkpt lat="50.1342" lon="3.7132">
        <ele>134.24</ele>
        <time>2015-05-17T16:18:21Z</time>
      </trkpt>
      <trkpt lat="50.13433" lon="3.71294">
        <ele>134.24</ele>
        <time>2015-05-17T16:18:32Z</time>
      </trkpt>
      <trkpt lat="50.13451" lon="3.71268">
        <ele>134.24</ele>
        <time>2015-05-17T16:18:43Z</time>
      </trkpt>
      <trkpt lat="50.13466" lon="3.71235">
        <ele>134.72</ele>
        <time>2015-05-17T16:18:54Z</time>
      </trkpt>
      <trkpt lat="50.13488" lon="3.7119">
        <ele>134.72</ele>
        <time>2015-05-17T16:19:08Z</time>
      </trkpt>
      <trkpt lat="50.13502" lon="3.71163">
        <ele>134.72</ele>
        <time>2015-05-17T16:19:21Z</time>
      </trkpt>
      <trkpt lat="50.13515" lon="3.71133">
        <ele>135.68</ele>
        <time>2015-05-17T16:19:35Z</time>
      </trkpt>
      <trkpt lat="50.13522" lon="3.71095">
        <ele>135.68</ele>
        <time>2015-05-17T16:19:48Z</time>
      </trkpt>
      <trkpt lat="50.13527" lon="3.71059">
        <ele>135.68</ele>
        <time>2015-05-17T16:20:01Z</time>
      </trkpt>
      <trkpt lat="50.13528" lon="3.71023">
        <ele>135.68</ele>
        <time>2015-05-17T16:20:14Z</time>
      </trkpt>
      <trkpt lat="50.13527" lon="3.70994">
        <ele>135.68</ele>
        <time>2015-05-17T16:20:28Z</time>
      </trkpt>
      <trkpt lat="50.13527" lon="3.70954">
        <ele>135.68</ele>
        <time>2015-05-17T16:20:41Z</time>
      </trkpt>
      <trkpt lat="50.13541" lon="3.70906">
        <ele>136.16</ele>
        <time>2015-05-17T16:20:55Z</time>
      </trkpt>
      <trkpt lat="50.13559" lon="3.70886">
        <ele>136.16</ele>
        <time>2015-05-17T16:21:05Z</time>
      </trkpt>
      <trkpt lat="50.1356" lon="3.70882">
        <ele>136.16</ele>
        <time>2015-05-17T16:21:06Z</time>
      </trkpt>
      <trkpt lat="50.13561" lon="3.70878">
        <ele>136.16</ele>
        <time>2015-05-17T16:21:07Z</time>
      </trkpt>
      <trkpt lat="50.1356" lon="3.70875">
        <ele>136.16</ele>
        <time>2015-05-17T16:21:08Z</time>
      </trkpt>
      <trkpt lat="50.13559" lon="3.70872">
        <ele>136.16</ele>
        <time>2015-05-17T16:21:09Z</time>
      </trkpt>
      <trkpt lat="50.13542" lon="3.7084">
        <ele>136.16</ele>
        <time>2015-05-17T16:21:21Z</time>
      </trkpt>
      <trkpt lat="50.13516" lon="3.70819">
        <ele>134.72</ele>
        <time>2015-05-17T16:21:35Z</time>
      </trkpt>
      <trkpt lat="50.13506" lon="3.70815">
        <ele>134.72</ele>
        <time>2015-05-17T16:21:41Z</time>
      </trkpt>
      <trkpt lat="50.13475" lon="3.70796">
        <ele>135.2</ele>
        <time>2015-05-17T16:21:56Z</time>
      </trkpt>
      <trkpt lat="50.13464" lon="3.70785">
        <ele>135.2</ele>
        <time>2015-05-17T16:22:07Z</time>
      </trkpt>
      <trkpt lat="50.13458" lon="3.70776">
        <ele>135.2</ele>
        <time>2015-05-17T16:22:17Z</time>
      </trkpt>
      <trkpt lat="50.13442" lon="3.70749">
        <ele>135.2</ele>
        <time>2015-05-17T16:22:29Z</time>
      </trkpt>
      <trkpt lat="50.13437" lon="3.70737">
        <ele>136.16</ele>
        <time>2015-05-17T16:22:36Z</time>
      </trkpt>
      <trkpt lat="50.13439" lon="3.70735">
        <ele>136.16</ele>
        <time>2015-05-17T16:23:00Z</time>
      </trkpt>
      <trkpt lat="50.13438" lon="3.70733">
        <ele>136.64</ele>
        <time>2015-05-17T16:23:26Z</time>
      </trkpt>
      <trkpt lat="50.1343" lon="3.70715">
        <ele>136.64</ele>
        <time>2015-05-17T16:23:38Z</time>
      </trkpt>
      <trkpt lat="50.13422" lon="3.70681">
        <ele>136.64</ele>
        <time>2015-05-17T16:23:50Z</time>
      </trkpt>
      <trkpt lat="50.13412" lon="3.70647">
        <ele>136.64</ele>
        <time>2015-05-17T16:24:04Z</time>
      </trkpt>
      <trkpt lat="50.13397" lon="3.70597">
        <ele>136.64</ele>
        <time>2015-05-17T16:24:22Z</time>
      </trkpt>
      <trkpt lat="50.1338" lon="3.70559">
        <ele>137.61</ele>
        <time>2015-05-17T16:24:37Z</time>
      </trkpt>
      <trkpt lat="50.13364" lon="3.70533">
        <ele>137.61</ele>
        <time>2015-05-17T16:24:50Z</time>
      </trkpt>
      <trkpt lat="50.13348" lon="3.70502">
        <ele>137.61</ele>
        <time>2015-05-17T16:25:03Z</time>
      </trkpt>
      <trkpt lat="50.1334" lon="3.7046">
        <ele>137.61</ele>
        <time>2015-05-17T16:25:17Z</time>
      </trkpt>
      <trkpt lat="50.13334" lon="3.70416">
        <ele>137.61</ele>
        <time>2015-05-17T16:25:31Z</time>
      </trkpt>
      <trkpt lat="50.13327" lon="3.70365">
        <ele>137.61</ele>
        <time>2015-05-17T16:25:46Z</time>
      </trkpt>
      <trkpt lat="50.13328" lon="3.70323">
        <ele>137.61</ele>
        <time>2015-05-17T16:25:59Z</time>
      </trkpt>
      <trkpt lat="50.13318" lon="3.70285">
        <ele>137.61</ele>
        <time>2015-05-17T16:26:12Z</time>
      </trkpt>
      <trkpt lat="50.13307" lon="3.7025">
        <ele>137.61</ele>
        <time>2015-05-17T16:26:26Z</time>
      </trkpt>
      <trkpt lat="50.13293" lon="3.7021">
        <ele>137.61</ele>
        <time>2015-05-17T16:26:40Z</time>
      </trkpt>
      <trkpt lat="50.13274" lon="3.70165">
        <ele>137.61</ele>
        <time>2015-05-17T16:26:55Z</time>
      </trkpt>
      <trkpt lat="50.13264" lon="3.70132">
        <ele>137.61</ele>
        <time>2015-05-17T16:27:07Z</time>
      </trkpt>
      <trkpt lat="50.13253" lon="3.70093">
        <ele>137.61</ele>
        <time>2015-05-17T16:27:21Z</time>
      </trkpt>
      <trkpt lat="50.13236" lon="3.70048">
        <ele>136.64</ele>
        <time>2015-05-17T16:27:36Z</time>
      </trkpt>
      <trkpt lat="50.1323" lon="3.70026">
        <ele>136.64</ele>
        <time>2015-05-17T16:27:44Z</time>
      </trkpt>
      <trkpt lat="50.13228" lon="3.70015">
        <ele>137.61</ele>
        <time>2015-05-17T16:27:49Z</time>
      </trkpt>
      <trkpt lat="50.13227" lon="3.70007">
        <ele>138.57</ele>
        <time>2015-05-17T16:28:00Z</time>
      </trkpt>
      <trkpt lat="50.13227" lon="3.7">
        <ele>138.57</ele>
        <time>2015-05-17T16:28:14Z</time>
      </trkpt>
      <trkpt lat="50.13225" lon="3.69995">
        <ele>138.57</ele>
        <time>2015-05-17T16:28:28Z</time>
      </trkpt>
      <trkpt lat="50.13222" lon="3.69987">
        <ele>138.57</ele>
        <time>2015-05-17T16:28:34Z</time>
      </trkpt>
      <trkpt lat="50.13219" lon="3.69975">
        <ele>138.57</ele>
        <time>2015-05-17T16:28:43Z</time>
      </trkpt>
      <trkpt lat="50.13212" lon="3.69942">
        <ele>138.57</ele>
        <time>2015-05-17T16:28:57Z</time>
      </trkpt>
      <trkpt lat="50.13211" lon="3.69939">
        <ele>138.57</ele>
        <time>2015-05-17T16:28:58Z</time>
      </trkpt>
      <trkpt lat="50.1321" lon="3.69937">
        <ele>138.57</ele>
        <time>2015-05-17T16:28:59Z</time>
      </trkpt>
      <trkpt lat="50.1321" lon="3.69935">
        <ele>138.57</ele>
        <time>2015-05-17T16:29:00Z</time>
      </trkpt>
      <trkpt lat="50.1321" lon="3.69933">
        <ele>138.57</ele>
        <time>2015-05-17T16:29:01Z</time>
      </trkpt>
      <trkpt lat="50.13209" lon="3.69931">
        <ele>138.57</ele>
        <time>2015-05-17T16:29:02Z</time>
      </trkpt>
      <trkpt lat="50.13209" lon="3.69929">
        <ele>138.57</ele>
        <time>2015-05-17T16:29:03Z</time>
      </trkpt>
      <trkpt lat="50.132" lon="3.69885">
        <ele>138.57</ele>
        <time>2015-05-17T16:29:18Z</time>
      </trkpt>
      <trkpt lat="50.1319" lon="3.69838">
        <ele>137.61</ele>
        <time>2015-05-17T16:29:33Z</time>
      </trkpt>
      <trkpt lat="50.13173" lon="3.69793">
        <ele>137.13</ele>
        <time>2015-05-17T16:29:47Z</time>
      </trkpt>
      <trkpt lat="50.13168" lon="3.69769">
        <ele>137.13</ele>
        <time>2015-05-17T16:29:56Z</time>
      </trkpt>
      <trkpt lat="50.13167" lon="3.69767">
        <ele>137.13</ele>
        <time>2015-05-17T16:30:08Z</time>
      </trkpt>
      <trkpt lat="50.13167" lon="3.69766">
        <ele>136.64</ele>
        <time>2015-05-17T16:30:40Z</time>
      </trkpt>
      <trkpt lat="50.13167" lon="3.69762">
        <ele>136.64</ele>
        <time>2015-05-17T16:30:59Z</time>
      </trkpt>
      <trkpt lat="50.13168" lon="3.69764">
        <ele>136.64</ele>
        <time>2015-05-17T16:31:28Z</time>
      </trkpt>
      <trkpt lat="50.13169" lon="3.69763">
        <ele>136.64</ele>
        <time>2015-05-17T16:32:00Z</time>
      </trkpt>
      <trkpt lat="50.13166" lon="3.69763">
        <ele>136.64</ele>
        <time>2015-05-17T16:32:26Z</time>
      </trkpt>
      <trkpt lat="50.13166" lon="3.69763">
        <ele>139.53</ele>
        <time>2015-05-17T16:32:31Z</time>
      </trkpt>
      <trkpt lat="50.13166" lon="3.69762">
        <ele>137.61</ele>
        <time>2015-05-17T16:32:39Z</time>
      </trkpt>
      <trkpt lat="50.13159" lon="3.69729">
        <ele>137.61</ele>
        <time>2015-05-17T16:32:52Z</time>
      </trkpt>
      <trkpt lat="50.13148" lon="3.6968">
        <ele>137.61</ele>
        <time>2015-05-17T16:33:08Z</time>
      </trkpt>
      <trkpt lat="50.13139" lon="3.69645">
        <ele>137.61</ele>
        <time>2015-05-17T16:33:22Z</time>
      </trkpt>
      <trkpt lat="50.13132" lon="3.69604">
        <ele>137.61</ele>
        <time>2015-05-17T16:33:36Z</time>
      </trkpt>
      <trkpt lat="50.13132" lon="3.69601">
        <ele>137.61</ele>
        <time>2015-05-17T16:33:37Z</time>
      </trkpt>
      <trkpt lat="50.13131" lon="3.69599">
        <ele>137.61</ele>
        <time>2015-05-17T16:33:38Z</time>
      </trkpt>
      <trkpt lat="50.1313" lon="3.69596">
        <ele>137.61</ele>
        <time>2015-05-17T16:33:39Z</time>
      </trkpt>
      <trkpt lat="50.1313" lon="3.69593">
        <ele>137.61</ele>
        <time>2015-05-17T16:33:40Z</time>
      </trkpt>
      <trkpt lat="50.13129" lon="3.6959">
        <ele>137.61</ele>
        <time>2015-05-17T16:33:41Z</time>
      </trkpt>
      <trkpt lat="50.13129" lon="3.69587">
        <ele>137.61</ele>
        <time>2015-05-17T16:33:42Z</time>
      </trkpt>
      <trkpt lat="50.13128" lon="3.69585">
        <ele>137.61</ele>
        <time>2015-05-17T16:33:43Z</time>
      </trkpt>
      <trkpt lat="50.13117" lon="3.6954">
        <ele>137.61</ele>
        <time>2015-05-17T16:33:59Z</time>
      </trkpt>
      <trkpt lat="50.13106" lon="3.69501">
        <ele>137.61</ele>
        <time>2015-05-17T16:34:14Z</time>
      </trkpt>
      <trkpt lat="50.13092" lon="3.69456">
        <ele>137.61</ele>
        <time>2015-05-17T16:34:31Z</time>
      </trkpt>
      <trkpt lat="50.13069" lon="3.69411">
        <ele>137.61</ele>
        <time>2015-05-17T16:34:49Z</time>
      </trkpt>
      <trkpt lat="50.13053" lon="3.69384">
        <ele>137.61</ele>
        <time>2015-05-17T16:35:02Z</time>
      </trkpt>
      <trkpt lat="50.13051" lon="3.69383">
        <ele>137.61</ele>
        <time>2015-05-17T16:35:03Z</time>
      </trkpt>
      <trkpt lat="50.13051" lon="3.69381">
        <ele>137.61</ele>
        <time>2015-05-17T16:35:04Z</time>
      </trkpt>
      <trkpt lat="50.13049" lon="3.69378">
        <ele>137.61</ele>
        <time>2015-05-17T16:35:16Z</time>
      </trkpt>
      <trkpt lat="50.13048" lon="3.69377">
        <ele>137.61</ele>
        <time>2015-05-17T16:35:17Z</time>
      </trkpt>
      <trkpt lat="50.13033" lon="3.6935">
        <ele>137.61</ele>
        <time>2015-05-17T16:35:30Z</time>
      </trkpt>
      <trkpt lat="50.13015" lon="3.69297">
        <ele>137.61</ele>
        <time>2015-05-17T16:35:48Z</time>
      </trkpt>
      <trkpt lat="50.13005" lon="3.69258">
        <ele>138.57</ele>
        <time>2015-05-17T16:36:02Z</time>
      </trkpt>
      <trkpt lat="50.12995" lon="3.69221">
        <ele>138.57</ele>
        <time>2015-05-17T16:36:16Z</time>
      </trkpt>
      <trkpt lat="50.12977" lon="3.69185">
        <ele>138.57</ele>
        <time>2015-05-17T16:36:31Z</time>
      </trkpt>
      <trkpt lat="50.12965" lon="3.6916">
        <ele>139.05</ele>
        <time>2015-05-17T16:36:42Z</time>
      </trkpt>
      <trkpt lat="50.12964" lon="3.69157">
        <ele>139.05</ele>
        <time>2015-05-17T16:36:44Z</time>
      </trkpt>
      <trkpt lat="50.12953" lon="3.69133">
        <ele>139.05</ele>
        <time>2015-05-17T16:36:57Z</time>
      </trkpt>
      <trkpt lat="50.12936" lon="3.69094">
        <ele>139.05</ele>
        <time>2015-05-17T16:37:12Z</time>
      </trkpt>
      <trkpt lat="50.12921" lon="3.69052">
        <ele>139.05</ele>
        <time>2015-05-17T16:37:27Z</time>
      </trkpt>
      <trkpt lat="50.12908" lon="3.69007">
        <ele>139.05</ele>
        <time>2015-05-17T16:37:43Z</time>
      </trkpt>
      <trkpt lat="50.12894" lon="3.6895">
        <ele>138.09</ele>
        <time>2015-05-17T16:38:00Z</time>
      </trkpt>
      <trkpt lat="50.12888" lon="3.68902">
        <ele>138.09</ele>
        <time>2015-05-17T16:38:16Z</time>
      </trkpt>
      <trkpt lat="50.12901" lon="3.68884">
        <ele>139.53</ele>
        <time>2015-05-17T16:38:27Z</time>
      </trkpt>
      <trkpt lat="50.12926" lon="3.68879">
        <ele>140.01</ele>
        <time>2015-05-17T16:38:42Z</time>
      </trkpt>
      <trkpt lat="50.1293" lon="3.68879">
        <ele>140.01</ele>
        <time>2015-05-17T16:38:44Z</time>
      </trkpt>
      <trkpt lat="50.12931" lon="3.6888">
        <ele>140.01</ele>
        <time>2015-05-17T16:38:45Z</time>
      </trkpt>
      <trkpt lat="50.12933" lon="3.68879">
        <ele>140.01</ele>
        <time>2015-05-17T16:38:46Z</time>
      </trkpt>
      <trkpt lat="50.12941" lon="3.6888">
        <ele>140.49</ele>
        <time>2015-05-17T16:38:50Z</time>
      </trkpt>
      <trkpt lat="50.12942" lon="3.6888">
        <ele>140.49</ele>
        <time>2015-05-17T16:38:51Z</time>
      </trkpt>
      <trkpt lat="50.12944" lon="3.68881">
        <ele>140.49</ele>
        <time>2015-05-17T16:38:52Z</time>
      </trkpt>
      <trkpt lat="50.12946" lon="3.68882">
        <ele>140.49</ele>
        <time>2015-05-17T16:38:53Z</time>
      </trkpt>
      <trkpt lat="50.12948" lon="3.68882">
        <ele>140.49</ele>
        <time>2015-05-17T16:38:54Z</time>
      </trkpt>
      <trkpt lat="50.1295" lon="3.68882">
        <ele>140.49</ele>
        <time>2015-05-17T16:38:55Z</time>
      </trkpt>
      <trkpt lat="50.12952" lon="3.68882">
        <ele>140.49</ele>
        <time>2015-05-17T16:38:56Z</time>
      </trkpt>
      <trkpt lat="50.12982" lon="3.68885">
        <ele>141.93</ele>
        <time>2015-05-17T16:39:11Z</time>
      </trkpt>
      <trkpt lat="50.13008" lon="3.68887">
        <ele>143.37</ele>
        <time>2015-05-17T16:39:26Z</time>
      </trkpt>
      <trkpt lat="50.1301" lon="3.68887">
        <ele>143.37</ele>
        <time>2015-05-17T16:39:43Z</time>
      </trkpt>
      <trkpt lat="50.13016" lon="3.68889">
        <ele>143.37</ele>
        <time>2015-05-17T16:39:48Z</time>
      </trkpt>
      <trkpt lat="50.13018" lon="3.68888">
        <ele>143.37</ele>
        <time>2015-05-17T16:39:49Z</time>
      </trkpt>
      <trkpt lat="50.13019" lon="3.68888">
        <ele>143.37</ele>
        <time>2015-05-17T16:39:50Z</time>
      </trkpt>
      <trkpt lat="50.13021" lon="3.68888">
        <ele>143.85</ele>
        <time>2015-05-17T16:39:51Z</time>
      </trkpt>
      <trkpt lat="50.13022" lon="3.68888">
        <ele>143.85</ele>
        <time>2015-05-17T16:39:52Z</time>
      </trkpt>
      <trkpt lat="50.13024" lon="3.68888">
        <ele>143.85</ele>
        <time>2015-05-17T16:39:53Z</time>
      </trkpt>
      <trkpt lat="50.13025" lon="3.68888">
        <ele>143.85</ele>
        <time>2015-05-17T16:39:54Z</time>
      </trkpt>
      <trkpt lat="50.13027" lon="3.68888">
        <ele>143.85</ele>
        <time>2015-05-17T16:39:55Z</time>
      </trkpt>
      <trkpt lat="50.13028" lon="3.68888">
        <ele>143.85</ele>
        <time>2015-05-17T16:39:56Z</time>
      </trkpt>
      <trkpt lat="50.1303" lon="3.68888">
        <ele>144.34</ele>
        <time>2015-05-17T16:39:57Z</time>
      </trkpt>
      <trkpt lat="50.13031" lon="3.68887">
        <ele>144.34</ele>
        <time>2015-05-17T16:39:58Z</time>
      </trkpt>
      <trkpt lat="50.13032" lon="3.68885">
        <ele>144.34</ele>
        <time>2015-05-17T16:39:59Z</time>
      </trkpt>
      <trkpt lat="50.13034" lon="3.68883">
        <ele>144.82</ele>
        <time>2015-05-17T16:40:00Z</time>
      </trkpt>
      <trkpt lat="50.13035" lon="3.6888">
        <ele>144.82</ele>
        <time>2015-05-17T16:40:01Z</time>
      </trkpt>
      <trkpt lat="50.13036" lon="3.68878">
        <ele>144.82</ele>
        <time>2015-05-17T16:40:02Z</time>
      </trkpt>
      <trkpt lat="50.13037" lon="3.68875">
        <ele>144.82</ele>
        <time>2015-05-17T16:40:03Z</time>
      </trkpt>
      <trkpt lat="50.13037" lon="3.68873">
        <ele>145.3</ele>
        <time>2015-05-17T16:40:04Z</time>
      </trkpt>
      <trkpt lat="50.13037" lon="3.6887">
        <ele>145.3</ele>
        <time>2015-05-17T16:40:05Z</time>
      </trkpt>
      <trkpt lat="50.13029" lon="3.6883">
        <ele>145.3</ele>
        <time>2015-05-17T16:40:18Z</time>
      </trkpt>
      <trkpt lat="50.13016" lon="3.68788">
        <ele>145.3</ele>
        <time>2015-05-17T16:40:34Z</time>
      </trkpt>
      <trkpt lat="50.13" lon="3.68738">
        <ele>145.3</ele>
        <time>2015-05-17T16:40:53Z</time>
      </trkpt>
      <trkpt lat="50.12997" lon="3.6873">
        <ele>145.3</ele>
        <time>2015-05-17T16:40:56Z</time>
      </trkpt>
      <trkpt lat="50.12996" lon="3.68728">
        <ele>145.3</ele>
        <time>2015-05-17T16:40:57Z</time>
      </trkpt>
      <trkpt lat="50.12995" lon="3.68726">
        <ele>145.3</ele>
        <time>2015-05-17T16:40:58Z</time>
      </trkpt>
      <trkpt lat="50.12991" lon="3.68712">
        <ele>145.3</ele>
        <time>2015-05-17T16:41:03Z</time>
      </trkpt>
      <trkpt lat="50.1299" lon="3.6871">
        <ele>145.3</ele>
        <time>2015-05-17T16:41:04Z</time>
      </trkpt>
      <trkpt lat="50.12989" lon="3.68708">
        <ele>145.3</ele>
        <time>2015-05-17T16:41:05Z</time>
      </trkpt>
      <trkpt lat="50.12988" lon="3.68705">
        <ele>145.3</ele>
        <time>2015-05-17T16:41:06Z</time>
      </trkpt>
      <trkpt lat="50.12987" lon="3.68702">
        <ele>145.3</ele>
        <time>2015-05-17T16:41:07Z</time>
      </trkpt>
      <trkpt lat="50.12976" lon="3.6868">
        <ele>144.34</ele>
        <time>2015-05-17T16:41:16Z</time>
      </trkpt>
      <trkpt lat="50.12974" lon="3.68679">
        <ele>144.34</ele>
        <time>2015-05-17T16:41:17Z</time>
      </trkpt>
      <trkpt lat="50.12951" lon="3.68649">
        <ele>143.85</ele>
        <time>2015-05-17T16:41:32Z</time>
      </trkpt>
      <trkpt lat="50.12936" lon="3.68614">
        <ele>143.85</ele>
        <time>2015-05-17T16:41:46Z</time>
      </trkpt>
      <trkpt lat="50.12924" lon="3.68571">
        <ele>143.85</ele>
        <time>2015-05-17T16:42:02Z</time>
      </trkpt>
      <trkpt lat="50.12923" lon="3.6857">
        <ele>143.85</ele>
        <time>2015-05-17T16:42:03Z</time>
      </trkpt>
      <trkpt lat="50.12922" lon="3.68567">
        <ele>143.85</ele>
        <time>2015-05-17T16:42:04Z</time>
      </trkpt>
      <trkpt lat="50.12915" lon="3.68545">
        <ele>143.85</ele>
        <time>2015-05-17T16:42:13Z</time>
      </trkpt>
      <trkpt lat="50.12905" lon="3.68507">
        <ele>145.3</ele>
        <time>2015-05-17T16:42:26Z</time>
      </trkpt>
      <trkpt lat="50.12904" lon="3.68505">
        <ele>145.3</ele>
        <time>2015-05-17T16:42:27Z</time>
      </trkpt>
      <trkpt lat="50.12903" lon="3.68502">
        <ele>145.3</ele>
        <time>2015-05-17T16:42:28Z</time>
      </trkpt>
      <trkpt lat="50.12902" lon="3.685">
        <ele>145.3</ele>
        <time>2015-05-17T16:42:29Z</time>
      </trkpt>
      <trkpt lat="50.12901" lon="3.68497">
        <ele>145.3</ele>
        <time>2015-05-17T16:42:30Z</time>
      </trkpt>
      <trkpt lat="50.129" lon="3.68494">
        <ele>145.3</ele>
        <time>2015-05-17T16:42:31Z</time>
      </trkpt>
      <trkpt lat="50.12899" lon="3.68491">
        <ele>145.3</ele>
        <time>2015-05-17T16:42:32Z</time>
      </trkpt>
      <trkpt lat="50.12898" lon="3.68487">
        <ele>145.3</ele>
        <time>2015-05-17T16:42:33Z</time>
      </trkpt>
      <trkpt lat="50.12897" lon="3.68485">
        <ele>145.3</ele>
        <time>2015-05-17T16:42:34Z</time>
      </trkpt>
      <trkpt lat="50.12896" lon="3.68482">
        <ele>145.3</ele>
        <time>2015-05-17T16:42:35Z</time>
      </trkpt>
      <trkpt lat="50.12895" lon="3.6848">
        <ele>145.3</ele>
        <time>2015-05-17T16:42:36Z</time>
      </trkpt>
      <trkpt lat="50.12895" lon="3.68477">
        <ele>145.3</ele>
        <time>2015-05-17T16:42:37Z</time>
      </trkpt>
      <trkpt lat="50.12894" lon="3.68474">
        <ele>145.3</ele>
        <time>2015-05-17T16:42:38Z</time>
      </trkpt>
      <trkpt lat="50.12893" lon="3.68472">
        <ele>145.3</ele>
        <time>2015-05-17T16:42:39Z</time>
      </trkpt>
      <trkpt lat="50.12893" lon="3.68469">
        <ele>145.3</ele>
        <time>2015-05-17T16:42:40Z</time>
      </trkpt>
      <trkpt lat="50.12892" lon="3.68467">
        <ele>145.3</ele>
        <time>2015-05-17T16:42:41Z</time>
      </trkpt>
      <trkpt lat="50.12875" lon="3.68416">
        <ele>145.3</ele>
        <time>2015-05-17T16:43:00Z</time>
      </trkpt>
      <trkpt lat="50.12858" lon="3.68391">
        <ele>145.3</ele>
        <time>2015-05-17T16:43:13Z</time>
      </trkpt>
      <trkpt lat="50.12857" lon="3.6839">
        <ele>145.3</ele>
        <time>2015-05-17T16:43:14Z</time>
      </trkpt>
      <trkpt lat="50.12855" lon="3.6839">
        <ele>143.85</ele>
        <time>2015-05-17T16:43:15Z</time>
      </trkpt>
      <trkpt lat="50.12853" lon="3.68391">
        <ele>143.85</ele>
        <time>2015-05-17T16:43:16Z</time>
      </trkpt>
      <trkpt lat="50.12851" lon="3.68392">
        <ele>143.85</ele>
        <time>2015-05-17T16:43:17Z</time>
      </trkpt>
      <trkpt lat="50.12849" lon="3.68394">
        <ele>143.85</ele>
        <time>2015-05-17T16:43:18Z</time>
      </trkpt>
      <trkpt lat="50.12821" lon="3.68425">
        <ele>142.89</ele>
        <time>2015-05-17T16:43:30Z</time>
      </trkpt>
      <trkpt lat="50.12809" lon="3.68433">
        <ele>142.89</ele>
        <time>2015-05-17T16:43:34Z</time>
      </trkpt>
      <trkpt lat="50.12806" lon="3.68433">
        <ele>142.89</ele>
        <time>2015-05-17T16:43:35Z</time>
      </trkpt>
      <trkpt lat="50.12803" lon="3.68432">
        <ele>141.93</ele>
        <time>2015-05-17T16:43:36Z</time>
      </trkpt>
      <trkpt lat="50.128" lon="3.6843">
        <ele>141.93</ele>
        <time>2015-05-17T16:43:37Z</time>
      </trkpt>
      <trkpt lat="50.12798" lon="3.68427">
        <ele>141.93</ele>
        <time>2015-05-17T16:43:38Z</time>
      </trkpt>
      <trkpt lat="50.12796" lon="3.68424">
        <ele>141.93</ele>
        <time>2015-05-17T16:43:39Z</time>
      </trkpt>
      <trkpt lat="50.12794" lon="3.68421">
        <ele>141.93</ele>
        <time>2015-05-17T16:43:40Z</time>
      </trkpt>
      <trkpt lat="50.12781" lon="3.68375">
        <ele>141.93</ele>
        <time>2015-05-17T16:43:53Z</time>
      </trkpt>
      <trkpt lat="50.12763" lon="3.68332">
        <ele>141.45</ele>
        <time>2015-05-17T16:44:06Z</time>
      </trkpt>
      <trkpt lat="50.12747" lon="3.68282">
        <ele>140.97</ele>
        <time>2015-05-17T16:44:22Z</time>
      </trkpt>
      <trkpt lat="50.12731" lon="3.68233">
        <ele>140.97</ele>
        <time>2015-05-17T16:44:40Z</time>
      </trkpt>
      <trkpt lat="50.12715" lon="3.6819">
        <ele>140.97</ele>
        <time>2015-05-17T16:44:56Z</time>
      </trkpt>
      <trkpt lat="50.12696" lon="3.68151">
        <ele>140.49</ele>
        <time>2015-05-17T16:45:11Z</time>
      </trkpt>
      <trkpt lat="50.12678" lon="3.68116">
        <ele>140.01</ele>
        <time>2015-05-17T16:45:26Z</time>
      </trkpt>
      <trkpt lat="50.12672" lon="3.68106">
        <ele>140.01</ele>
        <time>2015-05-17T16:45:31Z</time>
      </trkpt>
      <trkpt lat="50.12671" lon="3.68103">
        <ele>140.01</ele>
        <time>2015-05-17T16:45:32Z</time>
      </trkpt>
      <trkpt lat="50.1267" lon="3.68101">
        <ele>140.01</ele>
        <time>2015-05-17T16:45:33Z</time>
      </trkpt>
      <trkpt lat="50.12669" lon="3.68099">
        <ele>140.01</ele>
        <time>2015-05-17T16:45:34Z</time>
      </trkpt>
      <trkpt lat="50.12669" lon="3.68097">
        <ele>140.01</ele>
        <time>2015-05-17T16:45:35Z</time>
      </trkpt>
      <trkpt lat="50.12668" lon="3.68095">
        <ele>140.01</ele>
        <time>2015-05-17T16:45:36Z</time>
      </trkpt>
      <trkpt lat="50.12667" lon="3.68093">
        <ele>140.01</ele>
        <time>2015-05-17T16:45:37Z</time>
      </trkpt>
      <trkpt lat="50.12665" lon="3.6809">
        <ele>140.01</ele>
        <time>2015-05-17T16:45:38Z</time>
      </trkpt>
      <trkpt lat="50.12665" lon="3.68088">
        <ele>140.01</ele>
        <time>2015-05-17T16:45:39Z</time>
      </trkpt>
      <trkpt lat="50.12664" lon="3.68086">
        <ele>140.01</ele>
        <time>2015-05-17T16:45:40Z</time>
      </trkpt>
      <trkpt lat="50.12663" lon="3.68084">
        <ele>140.01</ele>
        <time>2015-05-17T16:45:41Z</time>
      </trkpt>
      <trkpt lat="50.12662" lon="3.68082">
        <ele>140.01</ele>
        <time>2015-05-17T16:45:42Z</time>
      </trkpt>
      <trkpt lat="50.12648" lon="3.68047">
        <ele>140.01</ele>
        <time>2015-05-17T16:45:56Z</time>
      </trkpt>
      <trkpt lat="50.12644" lon="3.68038">
        <ele>140.01</ele>
        <time>2015-05-17T16:45:59Z</time>
      </trkpt>
      <trkpt lat="50.12642" lon="3.68035">
        <ele>140.01</ele>
        <time>2015-05-17T16:46:00Z</time>
      </trkpt>
      <trkpt lat="50.12641" lon="3.68033">
        <ele>140.01</ele>
        <time>2015-05-17T16:46:01Z</time>
      </trkpt>
      <trkpt lat="50.12639" lon="3.68031">
        <ele>140.01</ele>
        <time>2015-05-17T16:46:02Z</time>
      </trkpt>
      <trkpt lat="50.12638" lon="3.68028">
        <ele>140.01</ele>
        <time>2015-05-17T16:46:03Z</time>
      </trkpt>
      <trkpt lat="50.12636" lon="3.68026">
        <ele>140.01</ele>
        <time>2015-05-17T16:46:04Z</time>
      </trkpt>
      <trkpt lat="50.12635" lon="3.68024">
        <ele>140.01</ele>
        <time>2015-05-17T16:46:05Z</time>
      </trkpt>
      <trkpt lat="50.12633" lon="3.68023">
        <ele>140.01</ele>
        <time>2015-05-17T16:46:06Z</time>
      </trkpt>
      <trkpt lat="50.12631" lon="3.6802">
        <ele>140.01</ele>
        <time>2015-05-17T16:46:07Z</time>
      </trkpt>
      <trkpt lat="50.1263" lon="3.68019">
        <ele>140.01</ele>
        <time>2015-05-17T16:46:08Z</time>
      </trkpt>
      <trkpt lat="50.12628" lon="3.68017">
        <ele>140.01</ele>
        <time>2015-05-17T16:46:09Z</time>
      </trkpt>
      <trkpt lat="50.12627" lon="3.68015">
        <ele>140.01</ele>
        <time>2015-05-17T16:46:10Z</time>
      </trkpt>
      <trkpt lat="50.12626" lon="3.68013">
        <ele>140.01</ele>
        <time>2015-05-17T16:46:11Z</time>
      </trkpt>
      <trkpt lat="50.12625" lon="3.68011">
        <ele>140.01</ele>
        <time>2015-05-17T16:46:12Z</time>
      </trkpt>
      <trkpt lat="50.12624" lon="3.68009">
        <ele>140.01</ele>
        <time>2015-05-17T16:46:13Z</time>
      </trkpt>
      <trkpt lat="50.12623" lon="3.68008">
        <ele>140.01</ele>
        <time>2015-05-17T16:46:14Z</time>
      </trkpt>
      <trkpt lat="50.12605" lon="3.67968">
        <ele>140.97</ele>
        <time>2015-05-17T16:46:32Z</time>
      </trkpt>
      <trkpt lat="50.12588" lon="3.67925">
        <ele>140.97</ele>
        <time>2015-05-17T16:46:47Z</time>
      </trkpt>
      <trkpt lat="50.12569" lon="3.67903">
        <ele>140.97</ele>
        <time>2015-05-17T16:47:00Z</time>
      </trkpt>
      <trkpt lat="50.12566" lon="3.679">
        <ele>140.97</ele>
        <time>2015-05-17T16:47:03Z</time>
      </trkpt>
      <trkpt lat="50.12564" lon="3.679">
        <ele>140.97</ele>
        <time>2015-05-17T16:47:04Z</time>
      </trkpt>
      <trkpt lat="50.12563" lon="3.67898">
        <ele>140.97</ele>
        <time>2015-05-17T16:47:05Z</time>
      </trkpt>
      <trkpt lat="50.12535" lon="3.67877">
        <ele>140.97</ele>
        <time>2015-05-17T16:47:20Z</time>
      </trkpt>
      <trkpt lat="50.12525" lon="3.67868">
        <ele>140.97</ele>
        <time>2015-05-17T16:47:26Z</time>
      </trkpt>
      <trkpt lat="50.12524" lon="3.67866">
        <ele>140.97</ele>
        <time>2015-05-17T16:47:27Z</time>
      </trkpt>
      <trkpt lat="50.12523" lon="3.67864">
        <ele>140.97</ele>
        <time>2015-05-17T16:47:28Z</time>
      </trkpt>
      <trkpt lat="50.12503" lon="3.67842">
        <ele>140.01</ele>
        <time>2015-05-17T16:47:42Z</time>
      </trkpt>
      <trkpt lat="50.12479" lon="3.67816">
        <ele>140.01</ele>
        <time>2015-05-17T16:47:56Z</time>
      </trkpt>
      <trkpt lat="50.12457" lon="3.67815">
        <ele>140.01</ele>
        <time>2015-05-17T16:48:09Z</time>
      </trkpt>
      <trkpt lat="50.12453" lon="3.67816">
        <ele>140.01</ele>
        <time>2015-05-17T16:48:22Z</time>
      </trkpt>
      <trkpt lat="50.12453" lon="3.67816">
        <ele>140.01</ele>
        <time>2015-05-17T16:48:38Z</time>
      </trkpt>
      <trkpt lat="50.12455" lon="3.6782">
        <ele>140.01</ele>
        <time>2015-05-17T16:48:54Z</time>
      </trkpt>
    </trkseg>
  </trk>
</gpx>